BAW31C KLAX-EGLL
Flight info
| Callsign | BAW31C |
|---|---|
| Flight time | N/A |
| Altitude | 31000 |
| Route | OSHNN1 BEALE Q842 WINEN DCT DTA DCT BOY DCT OLIIV DCT KU12U DCT PETBO DCT LEATS DCT YTH DCT 61N090W/N0482F330 64N080W 65N070W/M083F330 DCT IKNOG DCT 66N050W 6530N04000W 6430N03000W/M083F350 62N020W DCT ETILO/N0476F350 DCT EVNAL DCT KELLY L10 WAL UY53 NUGRA |
| Aircraft | B77W/H-SDE1E2E3FGHIJ2J3J4J5M1RWXY/LB1D1 |
Departure
| Time | 2026-04-25 04:09 |
|---|---|
| Airport | Los Angeles International Airport (KLAX) |
Arrival
| Time | N/A |
|---|---|
| Airport | London Heathrow Airport (EGLL) |
| Time | Latitude | Longitude | Altitude | Speed | Heading |
|---|---|---|---|---|---|
| 2026-04-25 03:00 | 33.94101 | -118.40753 | 130 ft | 0 kts | 69° |
| 2026-04-25 03:50 | 33.94099 | -118.40759 | 130 ft | 2 kts | 69° |
| 2026-04-25 03:50 | 33.94094 | -118.40776 | 130 ft | 2 kts | 69° |
| 2026-04-25 03:50 | 33.94089 | -118.40793 | 130 ft | 2 kts | 83° |
| 2026-04-25 03:51 | 33.94090 | -118.40810 | 131 ft | 2 kts | 109° |
| 2026-04-25 03:51 | 33.94097 | -118.40826 | 131 ft | 2 kts | 131° |
| 2026-04-25 03:51 | 33.94109 | -118.40838 | 131 ft | 2 kts | 154° |
| 2026-04-25 03:51 | 33.94123 | -118.40843 | 130 ft | 2 kts | 175° |
| 2026-04-25 03:52 | 33.94138 | -118.40844 | 130 ft | 2 kts | 176° |
| 2026-04-25 03:52 | 33.94152 | -118.40846 | 130 ft | 0 kts | 174° |
| 2026-04-25 03:52 | 33.94154 | -118.40846 | 130 ft | 0 kts | 173° |
| 2026-04-25 03:59 | 33.94152 | -118.40846 | 130 ft | 0 kts | 173° |
| 2026-04-25 03:59 | 33.94140 | -118.40844 | 130 ft | 3 kts | 174° |
| 2026-04-25 03:59 | 33.94109 | -118.40839 | 131 ft | 5 kts | 173° |
| 2026-04-25 04:00 | 33.94056 | -118.40833 | 132 ft | 9 kts | 174° |
| 2026-04-25 04:00 | 33.93980 | -118.40822 | 133 ft | 11 kts | 173° |
| 2026-04-25 04:00 | 33.93910 | -118.40801 | 133 ft | 11 kts | 150° |
| 2026-04-25 04:00 | 33.93836 | -118.40729 | 133 ft | 15 kts | 128° |
| 2026-04-25 04:01 | 33.93818 | -118.40594 | 131 ft | 18 kts | 83° |
| 2026-04-25 04:01 | 33.93837 | -118.40424 | 128 ft | 20 kts | 81° |
| 2026-04-25 04:01 | 33.93854 | -118.40264 | 126 ft | 18 kts | 84° |
| 2026-04-25 04:01 | 33.93866 | -118.40125 | 125 ft | 15 kts | 84° |
| 2026-04-25 04:02 | 33.93879 | -118.39998 | 123 ft | 15 kts | 81° |
| 2026-04-25 04:02 | 33.93893 | -118.39877 | 121 ft | 14 kts | 83° |
| 2026-04-25 04:02 | 33.93904 | -118.39761 | 118 ft | 13 kts | 84° |
| 2026-04-25 04:02 | 33.93915 | -118.39651 | 117 ft | 12 kts | 82° |
| 2026-04-25 04:03 | 33.93926 | -118.39546 | 117 ft | 13 kts | 83° |
| 2026-04-25 04:03 | 33.93939 | -118.39419 | 115 ft | 16 kts | 83° |
| 2026-04-25 04:03 | 33.93952 | -118.39291 | 113 ft | 14 kts | 83° |
| 2026-04-25 04:03 | 33.93962 | -118.39179 | 113 ft | 12 kts | 83° |
| 2026-04-25 04:04 | 33.93973 | -118.39071 | 111 ft | 14 kts | 83° |
| 2026-04-25 04:04 | 33.93987 | -118.38945 | 110 ft | 15 kts | 83° |
| 2026-04-25 04:04 | 33.93999 | -118.38822 | 110 ft | 13 kts | 84° |
| 2026-04-25 04:04 | 33.94008 | -118.38720 | 110 ft | 11 kts | 84° |
| 2026-04-25 04:05 | 33.94017 | -118.38633 | 110 ft | 10 kts | 82° |
| 2026-04-25 04:05 | 33.94027 | -118.38534 | 110 ft | 12 kts | 83° |
| 2026-04-25 04:05 | 33.94040 | -118.38416 | 109 ft | 17 kts | 82° |
| 2026-04-25 04:05 | 33.94055 | -118.38275 | 107 ft | 15 kts | 84° |
| 2026-04-25 04:06 | 33.94067 | -118.38155 | 107 ft | 13 kts | 83° |
| 2026-04-25 04:06 | 33.94075 | -118.38071 | 107 ft | 5 kts | 85° |
| 2026-04-25 04:06 | 33.94075 | -118.38065 | 107 ft | 0 kts | 89° |
| 2026-04-25 04:07 | 33.94071 | -118.38039 | 107 ft | 8 kts | 114° |
| 2026-04-25 04:07 | 33.94006 | -118.38010 | 107 ft | 10 kts | 203° |
| 2026-04-25 04:07 | 33.93979 | -118.38076 | 107 ft | 8 kts | 265° |
| 2026-04-25 04:07 | 33.93972 | -118.38147 | 107 ft | 12 kts | 264° |
| 2026-04-25 04:08 | 33.93958 | -118.38312 | 107 ft | 36 kts | 263° |
| 2026-04-25 04:08 | 33.93900 | -118.38890 | 110 ft | 103 kts | 265° |
| 2026-04-25 04:08 | 33.93784 | -118.40008 | 124 ft | 163 kts | 262° |
| 2026-04-25 04:08 | 33.93613 | -118.41527 | 396 ft | 195 kts | 261° |
| 2026-04-25 04:09 | 33.93401 | -118.43070 | 1236 ft | 187 kts | 262° |
| 2026-04-25 04:09 | 33.93261 | -118.44670 | 1528 ft | 201 kts | 263° |
| 2026-04-25 04:09 | 33.92815 | -118.46318 | 1666 ft | 219 kts | 237° |
| 2026-04-25 04:09 | 33.91867 | -118.47861 | 1939 ft | 236 kts | 232° |
| 2026-04-25 04:10 | 33.90812 | -118.49458 | 2273 ft | 253 kts | 232° |
| 2026-04-25 04:10 | 33.89645 | -118.51125 | 2804 ft | 262 kts | 231° |
| 2026-04-25 04:10 | 33.88465 | -118.52789 | 3547 ft | 262 kts | 231° |
| 2026-04-25 04:10 | 33.87263 | -118.54438 | 4181 ft | 266 kts | 223° |
| 2026-04-25 04:11 | 33.83772 | -118.55846 | 4928 ft | 281 kts | 175° |
| 2026-04-25 04:11 | 33.81804 | -118.55393 | 5445 ft | 287 kts | 169° |
| 2026-04-25 04:11 | 33.79903 | -118.54851 | 6214 ft | 284 kts | 168° |
| 2026-04-25 04:12 | 33.77947 | -118.54307 | 6793 ft | 288 kts | 169° |
| 2026-04-25 04:12 | 33.76001 | -118.53777 | 7428 ft | 289 kts | 169° |
| 2026-04-25 04:12 | 33.74023 | -118.53243 | 8026 ft | 292 kts | 169° |
| 2026-04-25 04:12 | 33.72039 | -118.52677 | 8587 ft | 296 kts | 163° |
| 2026-04-25 04:13 | 33.70238 | -118.51450 | 9098 ft | 303 kts | 138° |
| 2026-04-25 04:13 | 33.69007 | -118.49427 | 9590 ft | 310 kts | 116° |
| 2026-04-25 04:13 | 33.68202 | -118.47036 | 10169 ft | 312 kts | 111° |
| 2026-04-25 04:13 | 33.67461 | -118.44508 | 10375 ft | 329 kts | 111° |
| 2026-04-25 04:14 | 33.66675 | -118.41817 | 10635 ft | 351 kts | 111° |
| 2026-04-25 04:14 | 33.65842 | -118.38992 | 11111 ft | 369 kts | 111° |
| 2026-04-25 04:14 | 33.64990 | -118.36058 | 11587 ft | 386 kts | 108° |
| 2026-04-25 04:14 | 33.64464 | -118.32855 | 12188 ft | 400 kts | 96° |
| 2026-04-25 04:15 | 33.64386 | -118.29476 | 12872 ft | 410 kts | 90° |
| 2026-04-25 04:15 | 33.64441 | -118.26027 | 13613 ft | 417 kts | 86° |
| 2026-04-25 04:15 | 33.64915 | -118.22567 | 14311 ft | 424 kts | 75° |
| 2026-04-25 04:15 | 33.65908 | -118.19242 | 15065 ft | 428 kts | 63° |
| 2026-04-25 04:16 | 33.67383 | -118.16138 | 15762 ft | 431 kts | 52° |
| 2026-04-25 04:16 | 33.69294 | -118.13367 | 16386 ft | 434 kts | 41° |
| 2026-04-25 04:16 | 33.71572 | -118.11049 | 17056 ft | 434 kts | 31° |
| 2026-04-25 04:16 | 33.74056 | -118.08953 | 17788 ft | 436 kts | 31° |
| 2026-04-25 04:17 | 33.76521 | -118.06862 | 18458 ft | 437 kts | 31° |
| 2026-04-25 04:17 | 33.79030 | -118.04699 | 18869 ft | 443 kts | 31° |
| 2026-04-25 04:17 | 33.81543 | -118.02506 | 19226 ft | 449 kts | 32° |
| 2026-04-25 04:17 | 33.84072 | -118.00276 | 19663 ft | 453 kts | 32° |
| 2026-04-25 04:18 | 33.86631 | -117.98006 | 20104 ft | 457 kts | 32° |
| 2026-04-25 04:18 | 33.89180 | -117.95731 | 20604 ft | 459 kts | 32° |
| 2026-04-25 04:18 | 33.91771 | -117.93409 | 21027 ft | 463 kts | 32° |
| 2026-04-25 04:18 | 33.94330 | -117.91085 | 21388 ft | 468 kts | 32° |
| 2026-04-25 04:19 | 33.96911 | -117.88731 | 21835 ft | 470 kts | 33° |
| 2026-04-25 04:19 | 33.99561 | -117.86311 | 22264 ft | 473 kts | 32° |
| 2026-04-25 04:19 | 34.02156 | -117.83939 | 22646 ft | 476 kts | 32° |
| 2026-04-25 04:19 | 34.04829 | -117.81493 | 23011 ft | 480 kts | 32° |
| 2026-04-25 04:20 | 34.07462 | -117.79059 | 23383 ft | 484 kts | 34° |
| 2026-04-25 04:20 | 34.09941 | -117.76206 | 23750 ft | 493 kts | 44° |
| 2026-04-25 04:20 | 34.12159 | -117.73020 | 24203 ft | 496 kts | 47° |
| 2026-04-25 04:20 | 34.14340 | -117.69783 | 24587 ft | 498 kts | 47° |
| 2026-04-25 04:21 | 34.16504 | -117.66563 | 24912 ft | 502 kts | 47° |
| 2026-04-25 04:21 | 34.18724 | -117.63259 | 25241 ft | 506 kts | 47° |
| 2026-04-25 04:21 | 34.20952 | -117.59940 | 25637 ft | 508 kts | 47° |
| 2026-04-25 04:21 | 34.23172 | -117.56633 | 26051 ft | 509 kts | 47° |
| 2026-04-25 04:22 | 34.25391 | -117.53325 | 26415 ft | 512 kts | 47° |
| 2026-04-25 04:22 | 34.27645 | -117.49963 | 26746 ft | 515 kts | 46° |
| 2026-04-25 04:22 | 34.29895 | -117.46606 | 27122 ft | 517 kts | 46° |
| 2026-04-25 04:22 | 34.32175 | -117.43198 | 27546 ft | 518 kts | 46° |
| 2026-04-25 04:23 | 34.34448 | -117.39800 | 27907 ft | 521 kts | 46° |
| 2026-04-25 04:23 | 34.36721 | -117.36398 | 28177 ft | 525 kts | 46° |
| 2026-04-25 04:23 | 34.39007 | -117.32975 | 28491 ft | 528 kts | 47° |
| 2026-04-25 04:23 | 34.41306 | -117.29527 | 28760 ft | 531 kts | 47° |
| 2026-04-25 04:24 | 34.43650 | -117.26010 | 29040 ft | 534 kts | 47° |
| 2026-04-25 04:24 | 34.45965 | -117.22532 | 29396 ft | 535 kts | 47° |
| 2026-04-25 04:24 | 34.48297 | -117.19023 | 29902 ft | 533 kts | 47° |
| 2026-04-25 04:24 | 34.50610 | -117.15540 | 30366 ft | 531 kts | 47° |
| 2026-04-25 04:25 | 34.52937 | -117.12035 | 30672 ft | 533 kts | 47° |
| 2026-04-25 04:25 | 34.55262 | -117.08543 | 30880 ft | 536 kts | 46° |
| 2026-04-25 04:25 | 34.57656 | -117.05054 | 30912 ft | 541 kts | 45° |
| 2026-04-25 04:26 | 34.62605 | -116.97869 | 30907 ft | 553 kts | 45° |
| 2026-04-25 04:26 | 34.67576 | -116.90624 | 30896 ft | 552 kts | 45° |
| 2026-04-25 04:27 | 34.72511 | -116.83411 | 30904 ft | 553 kts | 45° |
| 2026-04-25 04:27 | 34.77432 | -116.76202 | 30912 ft | 554 kts | 45° |
| 2026-04-25 04:28 | 34.82350 | -116.68980 | 30907 ft | 554 kts | 45° |
| 2026-04-25 04:28 | 34.87332 | -116.61752 | 30892 ft | 551 kts | 43° |
| 2026-04-25 04:29 | 34.92522 | -116.54868 | 30878 ft | 554 kts | 42° |
| 2026-04-25 04:29 | 34.97721 | -116.47961 | 30867 ft | 551 kts | 42° |
| 2026-04-25 04:30 | 35.02887 | -116.41065 | 30854 ft | 553 kts | 41° |
| 2026-04-25 04:30 | 35.08081 | -116.34102 | 30840 ft | 553 kts | 42° |
| 2026-04-25 04:31 | 35.13228 | -116.27183 | 30826 ft | 554 kts | 43° |
| 2026-04-25 04:31 | 35.18416 | -116.20189 | 30827 ft | 553 kts | 43° |
| 2026-04-25 04:32 | 35.23600 | -116.13186 | 30827 ft | 558 kts | 42° |
| 2026-04-25 04:32 | 35.28754 | -116.06202 | 30824 ft | 552 kts | 42° |
| 2026-04-25 04:33 | 35.33934 | -115.99176 | 30833 ft | 557 kts | 42° |
| 2026-04-25 04:33 | 35.39090 | -115.92161 | 30849 ft | 553 kts | 42° |
| 2026-04-25 04:34 | 35.44272 | -115.85099 | 30866 ft | 555 kts | 42° |
| 2026-04-25 04:34 | 35.49433 | -115.78049 | 30872 ft | 555 kts | 42° |
| 2026-04-25 04:35 | 35.54649 | -115.70911 | 30870 ft | 556 kts | 42° |
| 2026-04-25 04:35 | 35.59840 | -115.63792 | 30881 ft | 555 kts | 42° |
| 2026-04-25 04:36 | 35.64979 | -115.56728 | 30887 ft | 556 kts | 42° |
| 2026-04-25 04:36 | 35.70136 | -115.49624 | 30897 ft | 555 kts | 41° |
| 2026-04-25 04:37 | 35.75302 | -115.42494 | 30890 ft | 555 kts | 42° |
| 2026-04-25 04:37 | 35.80435 | -115.35392 | 30882 ft | 556 kts | 41° |
| 2026-04-25 04:38 | 35.85592 | -115.28244 | 30842 ft | 559 kts | 43° |
| 2026-04-25 04:38 | 35.90748 | -115.21079 | 30824 ft | 559 kts | 43° |
| 2026-04-25 04:39 | 35.95887 | -115.13923 | 30823 ft | 560 kts | 42° |
| 2026-04-25 04:39 | 36.01031 | -115.06746 | 30817 ft | 560 kts | 42° |
| 2026-04-25 04:40 | 36.06175 | -114.99551 | 30817 ft | 557 kts | 43° |
| 2026-04-25 04:40 | 36.11304 | -114.92364 | 30811 ft | 558 kts | 42° |
| 2026-04-25 04:41 | 36.16491 | -114.85276 | 30812 ft | 554 kts | 37° |
| 2026-04-25 04:41 | 36.19436 | -114.82226 | 30812 ft | 543 kts | 28° |
| 2026-04-25 04:41 | 36.22568 | -114.79775 | 30818 ft | 532 kts | 21° |
| 2026-04-25 04:42 | 36.29126 | -114.75402 | 30832 ft | 535 kts | 20° |
| 2026-04-25 04:42 | 36.35635 | -114.71088 | 30829 ft | 529 kts | 20° |
| 2026-04-25 04:43 | 36.42136 | -114.66774 | 30824 ft | 529 kts | 20° |
| 2026-04-25 04:43 | 36.48577 | -114.62487 | 30816 ft | 528 kts | 20° |
| 2026-04-25 04:44 | 36.55093 | -114.58144 | 30816 ft | 530 kts | 20° |
| 2026-04-25 04:44 | 36.61541 | -114.53834 | 30822 ft | 526 kts | 20° |
| 2026-04-25 04:45 | 36.68009 | -114.49506 | 30831 ft | 527 kts | 21° |
| 2026-04-25 04:45 | 36.74374 | -114.45058 | 30837 ft | 529 kts | 25° |
| 2026-04-25 04:46 | 36.80573 | -114.40137 | 30841 ft | 528 kts | 25° |
| 2026-04-25 04:46 | 36.86793 | -114.35205 | 30845 ft | 529 kts | 25° |
| 2026-04-25 04:47 | 36.93001 | -114.30293 | 30832 ft | 528 kts | 26° |
| 2026-04-25 04:47 | 36.99160 | -114.25423 | 30832 ft | 526 kts | 26° |
| 2026-04-25 04:48 | 37.05361 | -114.20519 | 30839 ft | 526 kts | 26° |
| 2026-04-25 04:48 | 37.11557 | -114.15614 | 30835 ft | 525 kts | 26° |
| 2026-04-25 04:49 | 37.17738 | -114.10712 | 30855 ft | 525 kts | 26° |
| 2026-04-25 04:49 | 37.23914 | -114.05805 | 30881 ft | 522 kts | 26° |
| 2026-04-25 04:50 | 37.30019 | -114.00946 | 30913 ft | 521 kts | 27° |
| 2026-04-25 04:50 | 37.36134 | -113.96071 | 30924 ft | 520 kts | 27° |
| 2026-04-25 04:51 | 37.42267 | -113.91172 | 30954 ft | 519 kts | 27° |
| 2026-04-25 04:51 | 37.48315 | -113.86330 | 30951 ft | 518 kts | 27° |
| 2026-04-25 04:52 | 37.54449 | -113.81413 | 30967 ft | 519 kts | 27° |
| 2026-04-25 04:52 | 37.60513 | -113.76539 | 30994 ft | 518 kts | 28° |
| 2026-04-25 04:53 | 37.66560 | -113.71670 | 30971 ft | 514 kts | 28° |
| 2026-04-25 04:53 | 37.72601 | -113.66798 | 30967 ft | 515 kts | 28° |
| 2026-04-25 04:54 | 37.78635 | -113.61920 | 30971 ft | 514 kts | 28° |
| 2026-04-25 04:54 | 37.84640 | -113.57057 | 30985 ft | 513 kts | 28° |
| 2026-04-25 04:55 | 37.90661 | -113.52171 | 30971 ft | 510 kts | 28° |
| 2026-04-25 04:55 | 37.96680 | -113.47472 | 30978 ft | 506 kts | 25° |
| 2026-04-25 04:56 | 38.02813 | -113.43163 | 30979 ft | 506 kts | 25° |
| 2026-04-25 04:56 | 38.08989 | -113.38798 | 30981 ft | 506 kts | 25° |
| 2026-04-25 04:57 | 38.15146 | -113.34419 | 30970 ft | 507 kts | 26° |
| 2026-04-25 04:57 | 38.21287 | -113.30033 | 30962 ft | 508 kts | 26° |
| 2026-04-25 04:58 | 38.27432 | -113.25630 | 30951 ft | 507 kts | 26° |
| 2026-04-25 04:58 | 38.33598 | -113.21200 | 30947 ft | 507 kts | 26° |
| 2026-04-25 04:59 | 38.39737 | -113.16779 | 30932 ft | 507 kts | 26° |
| 2026-04-25 04:59 | 38.45843 | -113.12373 | 30923 ft | 506 kts | 26° |
| 2026-04-25 05:00 | 38.51939 | -113.07964 | 30907 ft | 506 kts | 26° |
| 2026-04-25 05:00 | 38.58098 | -113.03502 | 30913 ft | 509 kts | 26° |
| 2026-04-25 05:01 | 38.64218 | -112.99056 | 30915 ft | 505 kts | 26° |
| 2026-04-25 05:01 | 38.70375 | -112.94577 | 30914 ft | 507 kts | 26° |
| 2026-04-25 05:02 | 38.76484 | -112.90123 | 30906 ft | 505 kts | 26° |
| 2026-04-25 05:02 | 38.82633 | -112.85632 | 30898 ft | 505 kts | 26° |
| 2026-04-25 05:03 | 38.88746 | -112.81157 | 30900 ft | 505 kts | 26° |
| 2026-04-25 05:03 | 38.94876 | -112.76661 | 30898 ft | 505 kts | 26° |
| 2026-04-25 05:04 | 39.00977 | -112.72177 | 30896 ft | 506 kts | 26° |
| 2026-04-25 05:04 | 39.07082 | -112.67682 | 30894 ft | 506 kts | 26° |
| 2026-04-25 05:05 | 39.13271 | -112.63115 | 30901 ft | 506 kts | 26° |
| 2026-04-25 05:05 | 39.19377 | -112.58600 | 30905 ft | 505 kts | 26° |
| 2026-04-25 05:06 | 39.25433 | -112.54113 | 30890 ft | 506 kts | 25° |
| 2026-04-25 05:06 | 39.31563 | -112.49304 | 30888 ft | 510 kts | 31° |
| 2026-04-25 05:07 | 39.37333 | -112.43937 | 30874 ft | 511 kts | 31° |
| 2026-04-25 05:07 | 39.43118 | -112.38519 | 30885 ft | 515 kts | 32° |
| 2026-04-25 05:08 | 39.48890 | -112.33103 | 30883 ft | 512 kts | 32° |
| 2026-04-25 05:08 | 39.54660 | -112.27681 | 30893 ft | 514 kts | 32° |
| 2026-04-25 05:09 | 39.60430 | -112.22247 | 30894 ft | 515 kts | 32° |
| 2026-04-25 05:09 | 39.66219 | -112.16785 | 30891 ft | 515 kts | 32° |
| 2026-04-25 05:10 | 39.72043 | -112.11279 | 30886 ft | 515 kts | 32° |
| 2026-04-25 05:10 | 39.77842 | -112.05785 | 30885 ft | 515 kts | 32° |
| 2026-04-25 05:11 | 39.83613 | -112.00304 | 30886 ft | 517 kts | 32° |
| 2026-04-25 05:11 | 39.89421 | -111.94779 | 30892 ft | 518 kts | 32° |
| 2026-04-25 05:12 | 39.98166 | -111.86436 | 30885 ft | 518 kts | 32° |
| 2026-04-25 05:12 | 40.03950 | -111.80901 | 30891 ft | 520 kts | 32° |
| 2026-04-25 05:13 | 40.09778 | -111.75314 | 30872 ft | 519 kts | 32° |
| 2026-04-25 05:13 | 40.15568 | -111.69751 | 30881 ft | 518 kts | 32° |
| 2026-04-25 05:14 | 40.21359 | -111.64175 | 30891 ft | 520 kts | 32° |
| 2026-04-25 05:15 | 40.30098 | -111.55737 | 30915 ft | 519 kts | 32° |
| 2026-04-25 05:15 | 40.35959 | -111.50063 | 30920 ft | 520 kts | 32° |
| 2026-04-25 05:16 | 40.41782 | -111.44412 | 30919 ft | 520 kts | 32° |
| 2026-04-25 05:16 | 40.47590 | -111.38764 | 30925 ft | 519 kts | 32° |
| 2026-04-25 05:17 | 40.53405 | -111.33098 | 30917 ft | 521 kts | 32° |
| 2026-04-25 05:17 | 40.59213 | -111.27424 | 30927 ft | 518 kts | 32° |
| 2026-04-25 05:18 | 40.65065 | -111.21696 | 30931 ft | 521 kts | 32° |
| 2026-04-25 05:18 | 40.70844 | -111.16027 | 30939 ft | 521 kts | 32° |
| 2026-04-25 05:19 | 40.76664 | -111.10303 | 30938 ft | 520 kts | 32° |
| 2026-04-25 05:19 | 40.82420 | -111.04630 | 30935 ft | 520 kts | 32° |
| 2026-04-25 05:20 | 40.88213 | -110.98910 | 30932 ft | 522 kts | 32° |
| 2026-04-25 05:20 | 40.94011 | -110.93169 | 30934 ft | 520 kts | 32° |
| 2026-04-25 05:21 | 40.99839 | -110.87388 | 30925 ft | 521 kts | 32° |
| 2026-04-25 05:21 | 41.05612 | -110.81647 | 30919 ft | 522 kts | 32° |
| 2026-04-25 05:22 | 41.11405 | -110.75874 | 30924 ft | 521 kts | 32° |
| 2026-04-25 05:22 | 41.17202 | -110.70084 | 30934 ft | 523 kts | 32° |
| 2026-04-25 05:23 | 41.23004 | -110.64275 | 30932 ft | 523 kts | 32° |
| 2026-04-25 05:23 | 41.28863 | -110.58395 | 30956 ft | 523 kts | 32° |
| 2026-04-25 05:24 | 41.34618 | -110.52608 | 30956 ft | 525 kts | 32° |
| 2026-04-25 05:24 | 41.40488 | -110.46690 | 30949 ft | 523 kts | 32° |
| 2026-04-25 05:25 | 41.46300 | -110.40818 | 30950 ft | 525 kts | 31° |
| 2026-04-25 05:25 | 41.52101 | -110.34942 | 30945 ft | 522 kts | 32° |
| 2026-04-25 05:26 | 41.57948 | -110.29010 | 30929 ft | 527 kts | 32° |
| 2026-04-25 05:26 | 41.63799 | -110.23055 | 30919 ft | 523 kts | 32° |
| 2026-04-25 05:27 | 41.69650 | -110.17088 | 30905 ft | 526 kts | 32° |
| 2026-04-25 05:27 | 41.75453 | -110.11156 | 30892 ft | 525 kts | 32° |
| 2026-04-25 05:28 | 41.81258 | -110.05208 | 30901 ft | 526 kts | 32° |
| 2026-04-25 05:28 | 41.87035 | -109.99274 | 30905 ft | 525 kts | 32° |
| 2026-04-25 05:29 | 41.92866 | -109.93273 | 30892 ft | 527 kts | 32° |
| 2026-04-25 05:29 | 41.98667 | -109.87286 | 30891 ft | 525 kts | 32° |
| 2026-04-25 05:30 | 42.04460 | -109.81295 | 30898 ft | 525 kts | 32° |
| 2026-04-25 05:30 | 42.10241 | -109.75302 | 30890 ft | 525 kts | 32° |
| 2026-04-25 05:31 | 42.16015 | -109.69301 | 30915 ft | 524 kts | 32° |
| 2026-04-25 05:31 | 42.21777 | -109.63299 | 30913 ft | 522 kts | 32° |
| 2026-04-25 05:32 | 42.27544 | -109.57278 | 30921 ft | 524 kts | 32° |
| 2026-04-25 05:32 | 42.33297 | -109.51257 | 30929 ft | 523 kts | 33° |
| 2026-04-25 05:33 | 42.39049 | -109.45223 | 30916 ft | 524 kts | 33° |
| 2026-04-25 05:33 | 42.44809 | -109.39166 | 30928 ft | 523 kts | 33° |
| 2026-04-25 05:34 | 42.50561 | -109.33103 | 30909 ft | 525 kts | 33° |
| 2026-04-25 05:34 | 42.56307 | -109.27031 | 30897 ft | 522 kts | 34° |
| 2026-04-25 05:35 | 42.62026 | -109.20974 | 30873 ft | 525 kts | 33° |
| 2026-04-25 05:35 | 42.67795 | -109.14848 | 30853 ft | 521 kts | 34° |
| 2026-04-25 05:36 | 42.73470 | -109.08808 | 30852 ft | 521 kts | 34° |
| 2026-04-25 05:36 | 42.79191 | -109.02705 | 30844 ft | 520 kts | 34° |
| 2026-04-25 05:37 | 42.84922 | -108.96577 | 30921 ft | 522 kts | 34° |
| 2026-04-25 05:37 | 42.90590 | -108.90501 | 30960 ft | 519 kts | 34° |
| 2026-04-25 05:38 | 42.96296 | -108.84368 | 30975 ft | 519 kts | 34° |
| 2026-04-25 05:38 | 43.01945 | -108.78284 | 31009 ft | 519 kts | 34° |
| 2026-04-25 05:39 | 43.07619 | -108.72156 | 31012 ft | 516 kts | 34° |
| 2026-04-25 05:39 | 43.13256 | -108.66054 | 31008 ft | 516 kts | 34° |
| 2026-04-25 05:40 | 43.18896 | -108.59936 | 31003 ft | 516 kts | 34° |
| 2026-04-25 05:40 | 43.24504 | -108.53835 | 30999 ft | 514 kts | 34° |
| 2026-04-25 05:41 | 43.30083 | -108.47753 | 30989 ft | 513 kts | 34° |
| 2026-04-25 05:41 | 43.35686 | -108.41630 | 30982 ft | 515 kts | 34° |
| 2026-04-25 05:42 | 43.41277 | -108.35503 | 30960 ft | 513 kts | 34° |
| 2026-04-25 05:42 | 43.47003 | -108.29791 | 30934 ft | 506 kts | 25° |
| 2026-04-25 05:43 | 43.53463 | -108.26090 | 30946 ft | 501 kts | 15° |
| 2026-04-25 05:43 | 43.60003 | -108.22824 | 30968 ft | 500 kts | 15° |
| 2026-04-25 05:44 | 43.66504 | -108.19528 | 30993 ft | 497 kts | 16° |
| 2026-04-25 05:44 | 43.72999 | -108.16204 | 30997 ft | 498 kts | 16° |
| 2026-04-25 05:45 | 43.79470 | -108.12870 | 30999 ft | 497 kts | 16° |
| 2026-04-25 05:45 | 43.85954 | -108.09515 | 31004 ft | 496 kts | 16° |
| 2026-04-25 05:46 | 43.92430 | -108.06151 | 30996 ft | 495 kts | 16° |
| 2026-04-25 05:46 | 43.98918 | -108.02772 | 31001 ft | 495 kts | 16° |
| 2026-04-25 05:47 | 44.05327 | -107.99425 | 31010 ft | 495 kts | 16° |
| 2026-04-25 05:47 | 44.11783 | -107.96044 | 31008 ft | 494 kts | 16° |
| 2026-04-25 05:48 | 44.18179 | -107.92687 | 31013 ft | 493 kts | 16° |
| 2026-04-25 05:48 | 44.24598 | -107.89311 | 31033 ft | 493 kts | 15° |
| 2026-04-25 05:49 | 44.31013 | -107.85927 | 31034 ft | 493 kts | 15° |
| 2026-04-25 05:49 | 44.37454 | -107.82523 | 31024 ft | 492 kts | 15° |
| 2026-04-25 05:50 | 44.43863 | -107.79126 | 31024 ft | 492 kts | 15° |
| 2026-04-25 05:50 | 44.50235 | -107.75742 | 31026 ft | 492 kts | 15° |
| 2026-04-25 05:51 | 44.56618 | -107.72344 | 30978 ft | 492 kts | 15° |
| 2026-04-25 05:51 | 44.63061 | -107.68906 | 30924 ft | 490 kts | 15° |
| 2026-04-25 05:52 | 44.69430 | -107.65499 | 30888 ft | 491 kts | 15° |
| 2026-04-25 05:52 | 44.75784 | -107.62093 | 30867 ft | 491 kts | 15° |
| 2026-04-25 05:53 | 44.82174 | -107.58658 | 30889 ft | 490 kts | 15° |
| 2026-04-25 05:53 | 44.88514 | -107.55244 | 30924 ft | 491 kts | 15° |
| 2026-04-25 05:54 | 44.94888 | -107.51801 | 30970 ft | 489 kts | 15° |
| 2026-04-25 05:54 | 45.04419 | -107.46640 | 31032 ft | 491 kts | 15° |
| 2026-04-25 05:55 | 45.10752 | -107.43201 | 31030 ft | 490 kts | 15° |
| 2026-04-25 05:55 | 45.17168 | -107.39707 | 31045 ft | 492 kts | 15° |
| 2026-04-25 05:56 | 45.23563 | -107.36217 | 31040 ft | 492 kts | 15° |
| 2026-04-25 05:56 | 45.29980 | -107.32706 | 31032 ft | 494 kts | 16° |
| 2026-04-25 05:57 | 45.36400 | -107.29184 | 31027 ft | 495 kts | 16° |
| 2026-04-25 05:57 | 45.42762 | -107.25350 | 31014 ft | 502 kts | 22° |
| 2026-04-25 05:58 | 45.48920 | -107.20624 | 31012 ft | 505 kts | 23° |
| 2026-04-25 05:58 | 45.55106 | -107.15828 | 31010 ft | 505 kts | 24° |
| 2026-04-25 05:59 | 45.61294 | -107.11021 | 31002 ft | 506 kts | 24° |
| 2026-04-25 05:59 | 45.67494 | -107.06194 | 30994 ft | 508 kts | 24° |
| 2026-04-25 06:00 | 45.73687 | -107.01360 | 30975 ft | 509 kts | 23° |
| 2026-04-25 06:00 | 45.79938 | -106.96468 | 30973 ft | 509 kts | 23° |
| 2026-04-25 06:01 | 45.86171 | -106.91579 | 30976 ft | 513 kts | 24° |
| 2026-04-25 06:01 | 45.92449 | -106.86643 | 30974 ft | 514 kts | 24° |
| 2026-04-25 06:02 | 45.98715 | -106.81701 | 30975 ft | 515 kts | 24° |
| 2026-04-25 06:02 | 46.05024 | -106.76713 | 30988 ft | 515 kts | 24° |
| 2026-04-25 06:03 | 46.11266 | -106.71765 | 30995 ft | 515 kts | 24° |
| 2026-04-25 06:03 | 46.17547 | -106.66773 | 31001 ft | 516 kts | 25° |
| 2026-04-25 06:04 | 46.23834 | -106.61763 | 31006 ft | 516 kts | 25° |
| 2026-04-25 06:04 | 46.30128 | -106.56735 | 31004 ft | 516 kts | 25° |
| 2026-04-25 06:05 | 46.36439 | -106.51680 | 30992 ft | 516 kts | 25° |
| 2026-04-25 06:05 | 46.42748 | -106.46613 | 30987 ft | 516 kts | 25° |
| 2026-04-25 06:06 | 46.49018 | -106.41563 | 30980 ft | 516 kts | 25° |
| 2026-04-25 06:06 | 46.55323 | -106.36472 | 30976 ft | 515 kts | 25° |
| 2026-04-25 06:07 | 46.61587 | -106.31401 | 30953 ft | 517 kts | 26° |
| 2026-04-25 06:07 | 46.67841 | -106.26324 | 30948 ft | 516 kts | 26° |
| 2026-04-25 06:08 | 46.74081 | -106.21244 | 30949 ft | 515 kts | 26° |
| 2026-04-25 06:08 | 46.80344 | -106.16133 | 30947 ft | 517 kts | 26° |
| 2026-04-25 06:09 | 46.86652 | -106.10971 | 30946 ft | 519 kts | 26° |
| 2026-04-25 06:09 | 46.92974 | -106.05782 | 30947 ft | 519 kts | 26° |
| 2026-04-25 06:10 | 46.99256 | -106.00613 | 30937 ft | 521 kts | 27° |
| 2026-04-25 06:10 | 47.05461 | -105.94968 | 30940 ft | 522 kts | 31° |
| 2026-04-25 06:11 | 47.11521 | -105.89085 | 30928 ft | 520 kts | 31° |
| 2026-04-25 06:11 | 47.17571 | -105.83230 | 30922 ft | 519 kts | 31° |
| 2026-04-25 06:12 | 47.23528 | -105.77467 | 30917 ft | 516 kts | 30° |
| 2026-04-25 06:12 | 47.29554 | -105.71637 | 30905 ft | 516 kts | 30° |
| 2026-04-25 06:13 | 47.35543 | -105.65831 | 30908 ft | 518 kts | 30° |
| 2026-04-25 06:14 | 47.44513 | -105.57111 | 30902 ft | 516 kts | 30° |
| 2026-04-25 06:14 | 47.50484 | -105.51289 | 30906 ft | 517 kts | 30° |
| 2026-04-25 06:15 | 47.56465 | -105.45441 | 30909 ft | 516 kts | 30° |
| 2026-04-25 06:15 | 47.62450 | -105.39574 | 30908 ft | 515 kts | 30° |
| 2026-04-25 06:16 | 47.68398 | -105.33727 | 30900 ft | 516 kts | 31° |
| 2026-04-25 06:16 | 47.74381 | -105.27829 | 30901 ft | 517 kts | 31° |
| 2026-04-25 06:17 | 47.80363 | -105.21915 | 30900 ft | 517 kts | 31° |
| 2026-04-25 06:17 | 47.86325 | -105.16006 | 30888 ft | 518 kts | 31° |
| 2026-04-25 06:18 | 47.92290 | -105.10076 | 30874 ft | 519 kts | 31° |
| 2026-04-25 06:18 | 47.98280 | -105.04104 | 30867 ft | 519 kts | 31° |
| 2026-04-25 06:19 | 48.04313 | -104.98074 | 30862 ft | 520 kts | 31° |
| 2026-04-25 06:19 | 48.10367 | -104.92004 | 30856 ft | 521 kts | 31° |
| 2026-04-25 06:20 | 48.16385 | -104.85951 | 30857 ft | 519 kts | 31° |
| 2026-04-25 06:20 | 48.22375 | -104.79912 | 30860 ft | 520 kts | 31° |
| 2026-04-25 06:21 | 48.28367 | -104.73852 | 30861 ft | 520 kts | 30° |
| 2026-04-25 06:21 | 48.34369 | -104.67766 | 30854 ft | 522 kts | 30° |
| 2026-04-25 06:22 | 48.40376 | -104.61655 | 30852 ft | 522 kts | 30° |
| 2026-04-25 06:22 | 48.46367 | -104.55543 | 30845 ft | 521 kts | 30° |
| 2026-04-25 06:23 | 48.52343 | -104.49430 | 30851 ft | 522 kts | 30° |
| 2026-04-25 06:23 | 48.58340 | -104.43276 | 30856 ft | 523 kts | 30° |
| 2026-04-25 06:24 | 48.64350 | -104.37092 | 30850 ft | 522 kts | 30° |
| 2026-04-25 06:24 | 48.70304 | -104.30947 | 30837 ft | 523 kts | 31° |
| 2026-04-25 06:25 | 48.76327 | -104.24713 | 30825 ft | 523 kts | 31° |
| 2026-04-25 06:25 | 48.82298 | -104.18514 | 30811 ft | 524 kts | 31° |
| 2026-04-25 06:26 | 48.88282 | -104.12283 | 30807 ft | 524 kts | 31° |
| 2026-04-25 06:26 | 48.94271 | -104.06029 | 30811 ft | 525 kts | 31° |
| 2026-04-25 06:27 | 49.00295 | -103.99720 | 30777 ft | 526 kts | 30° |
| 2026-04-25 06:27 | 49.06511 | -103.94011 | 30752 ft | 523 kts | 25° |
| 2026-04-25 06:28 | 49.12768 | -103.88500 | 30809 ft | 521 kts | 26° |
| 2026-04-25 06:28 | 49.19022 | -103.82938 | 30780 ft | 521 kts | 26° |
| 2026-04-25 06:29 | 49.25262 | -103.77348 | 30802 ft | 521 kts | 26° |
| 2026-04-25 06:29 | 49.31479 | -103.71750 | 30781 ft | 520 kts | 26° |
| 2026-04-25 06:30 | 49.37709 | -103.66116 | 30774 ft | 521 kts | 26° |
| 2026-04-25 06:30 | 49.43917 | -103.60481 | 30769 ft | 520 kts | 26° |
| 2026-04-25 06:31 | 49.50136 | -103.54819 | 30815 ft | 521 kts | 26° |
| 2026-04-25 06:31 | 49.56313 | -103.49174 | 30743 ft | 518 kts | 26° |
| 2026-04-25 06:32 | 49.62515 | -103.43493 | 30754 ft | 520 kts | 26° |
| 2026-04-25 06:32 | 49.68734 | -103.37775 | 30756 ft | 518 kts | 26° |
| 2026-04-25 06:33 | 49.74887 | -103.32102 | 30753 ft | 518 kts | 27° |
| 2026-04-25 06:33 | 49.81077 | -103.26379 | 30750 ft | 519 kts | 27° |
| 2026-04-25 06:34 | 49.87247 | -103.20655 | 30730 ft | 519 kts | 27° |
| 2026-04-25 06:34 | 49.93432 | -103.14901 | 30783 ft | 520 kts | 27° |
| 2026-04-25 06:35 | 49.99604 | -103.09140 | 30731 ft | 519 kts | 27° |
| 2026-04-25 06:35 | 50.05747 | -103.03391 | 30760 ft | 519 kts | 27° |
| 2026-04-25 06:36 | 50.11941 | -102.97575 | 30734 ft | 519 kts | 28° |
| 2026-04-25 06:36 | 50.18137 | -102.91740 | 30740 ft | 519 kts | 28° |
| 2026-04-25 06:37 | 50.24295 | -102.85924 | 30740 ft | 521 kts | 28° |
| 2026-04-25 06:37 | 50.30477 | -102.80066 | 30731 ft | 522 kts | 28° |
| 2026-04-25 06:38 | 50.36651 | -102.74198 | 30735 ft | 521 kts | 29° |
| 2026-04-25 06:38 | 50.42799 | -102.68336 | 30747 ft | 521 kts | 29° |
| 2026-04-25 06:39 | 50.48973 | -102.62432 | 30738 ft | 521 kts | 29° |
| 2026-04-25 06:39 | 50.55145 | -102.56512 | 30737 ft | 521 kts | 29° |
| 2026-04-25 06:40 | 50.61301 | -102.50587 | 30708 ft | 521 kts | 30° |
| 2026-04-25 06:40 | 50.67452 | -102.44649 | 30741 ft | 519 kts | 30° |
| 2026-04-25 06:41 | 50.73581 | -102.38715 | 30746 ft | 520 kts | 30° |
| 2026-04-25 06:41 | 50.79755 | -102.32719 | 30745 ft | 521 kts | 31° |
| 2026-04-25 06:42 | 50.85905 | -102.26726 | 30731 ft | 520 kts | 31° |
| 2026-04-25 06:42 | 50.91996 | -102.20773 | 30721 ft | 519 kts | 31° |
| 2026-04-25 06:43 | 50.98134 | -102.14755 | 30731 ft | 520 kts | 31° |
| 2026-04-25 06:43 | 51.04262 | -102.08727 | 30752 ft | 519 kts | 31° |
| 2026-04-25 06:44 | 51.10383 | -102.02688 | 30741 ft | 520 kts | 32° |
| 2026-04-25 06:44 | 51.16473 | -101.96661 | 30736 ft | 519 kts | 32° |
| 2026-04-25 06:45 | 51.22614 | -101.90563 | 30750 ft | 520 kts | 32° |
| 2026-04-25 06:45 | 51.28688 | -101.84513 | 30750 ft | 519 kts | 32° |
| 2026-04-25 06:46 | 51.34807 | -101.78399 | 30735 ft | 520 kts | 32° |
| 2026-04-25 06:46 | 51.40921 | -101.72270 | 30755 ft | 519 kts | 32° |
| 2026-04-25 06:47 | 51.46991 | -101.66166 | 30743 ft | 518 kts | 32° |
| 2026-04-25 06:47 | 51.53086 | -101.60017 | 30751 ft | 519 kts | 33° |
| 2026-04-25 06:48 | 51.59147 | -101.53883 | 30728 ft | 517 kts | 33° |
| 2026-04-25 06:48 | 51.65244 | -101.47693 | 30718 ft | 518 kts | 33° |
| 2026-04-25 06:49 | 51.71291 | -101.41533 | 30722 ft | 517 kts | 33° |
| 2026-04-25 06:49 | 51.77691 | -101.36243 | 30723 ft | 520 kts | 26° |
| 2026-04-25 06:50 | 51.84156 | -101.31300 | 30736 ft | 517 kts | 27° |
| 2026-04-25 06:50 | 51.90624 | -101.26270 | 30749 ft | 517 kts | 27° |
| 2026-04-25 06:51 | 51.97087 | -101.21188 | 30758 ft | 516 kts | 27° |
| 2026-04-25 06:51 | 52.03543 | -101.16071 | 30772 ft | 517 kts | 28° |
| 2026-04-25 06:52 | 52.09969 | -101.10950 | 30774 ft | 516 kts | 28° |
| 2026-04-25 06:52 | 52.16393 | -101.05807 | 30775 ft | 516 kts | 28° |
| 2026-04-25 06:53 | 52.22791 | -101.00664 | 30786 ft | 517 kts | 28° |
| 2026-04-25 06:53 | 52.29199 | -100.95494 | 30794 ft | 517 kts | 28° |
| 2026-04-25 06:54 | 52.35645 | -100.90276 | 30784 ft | 516 kts | 28° |
| 2026-04-25 06:54 | 52.42069 | -100.85057 | 30783 ft | 516 kts | 28° |
| 2026-04-25 06:55 | 52.48475 | -100.79836 | 30785 ft | 515 kts | 28° |
| 2026-04-25 06:55 | 52.54873 | -100.74605 | 30790 ft | 516 kts | 28° |
| 2026-04-25 06:56 | 52.61256 | -100.69367 | 30794 ft | 516 kts | 28° |
| 2026-04-25 06:56 | 52.67635 | -100.64117 | 30796 ft | 515 kts | 29° |
| 2026-04-25 06:57 | 52.74009 | -100.58852 | 30794 ft | 515 kts | 29° |
| 2026-04-25 06:57 | 52.80418 | -100.53542 | 30793 ft | 514 kts | 29° |
| 2026-04-25 06:58 | 52.86782 | -100.48251 | 30793 ft | 514 kts | 29° |
| 2026-04-25 06:58 | 52.93135 | -100.42952 | 30796 ft | 514 kts | 29° |
| 2026-04-25 06:59 | 52.99495 | -100.37631 | 30795 ft | 513 kts | 30° |
| 2026-04-25 06:59 | 53.05841 | -100.32302 | 30806 ft | 512 kts | 30° |
| 2026-04-25 07:00 | 53.12168 | -100.26971 | 30799 ft | 512 kts | 30° |
| 2026-04-25 07:00 | 53.18501 | -100.21619 | 30808 ft | 512 kts | 31° |
| 2026-04-25 07:01 | 53.24832 | -100.16250 | 30817 ft | 513 kts | 31° |
| 2026-04-25 07:01 | 53.31183 | -100.10845 | 30833 ft | 514 kts | 31° |
| 2026-04-25 07:02 | 53.37509 | -100.05445 | 30831 ft | 513 kts | 32° |
| 2026-04-25 07:02 | 53.43841 | -100.00020 | 30834 ft | 514 kts | 32° |
| 2026-04-25 07:03 | 53.50180 | -99.94572 | 30842 ft | 513 kts | 32° |
| 2026-04-25 07:03 | 53.56530 | -99.89095 | 30846 ft | 513 kts | 32° |
| 2026-04-25 07:04 | 53.62815 | -99.83657 | 30846 ft | 512 kts | 32° |
| 2026-04-25 07:04 | 53.69168 | -99.78141 | 30850 ft | 512 kts | 32° |
| 2026-04-25 07:05 | 53.75444 | -99.72673 | 30854 ft | 511 kts | 33° |
| 2026-04-25 07:05 | 53.81765 | -99.67147 | 30859 ft | 511 kts | 33° |
| 2026-04-25 07:06 | 53.88060 | -99.61624 | 30849 ft | 513 kts | 33° |
| 2026-04-25 07:06 | 53.94351 | -99.56087 | 30852 ft | 511 kts | 33° |
| 2026-04-25 07:07 | 54.00610 | -99.50561 | 30854 ft | 510 kts | 33° |
| 2026-04-25 07:07 | 54.06900 | -99.44984 | 30858 ft | 510 kts | 34° |
| 2026-04-25 07:08 | 54.13151 | -99.39425 | 30863 ft | 510 kts | 34° |
| 2026-04-25 07:08 | 54.19432 | -99.33821 | 30873 ft | 510 kts | 35° |
| 2026-04-25 07:09 | 54.25665 | -99.28239 | 30878 ft | 510 kts | 35° |
| 2026-04-25 07:09 | 54.31932 | -99.22607 | 30895 ft | 510 kts | 36° |
| 2026-04-25 07:10 | 54.38170 | -99.16985 | 30891 ft | 508 kts | 36° |
| 2026-04-25 07:10 | 54.44413 | -99.11336 | 30899 ft | 507 kts | 36° |
| 2026-04-25 07:11 | 54.50651 | -99.05669 | 30904 ft | 511 kts | 36° |
| 2026-04-25 07:11 | 54.56868 | -99.00008 | 30902 ft | 508 kts | 36° |
| 2026-04-25 07:12 | 54.63081 | -98.94327 | 30903 ft | 509 kts | 37° |
| 2026-04-25 07:12 | 54.72436 | -98.85737 | 30917 ft | 509 kts | 37° |
| 2026-04-25 07:13 | 54.78640 | -98.80016 | 30925 ft | 508 kts | 37° |
| 2026-04-25 07:13 | 54.84882 | -98.74239 | 30934 ft | 506 kts | 37° |
| 2026-04-25 07:14 | 54.91022 | -98.68539 | 30942 ft | 504 kts | 37° |
| 2026-04-25 07:14 | 54.97237 | -98.62740 | 30959 ft | 509 kts | 37° |
| 2026-04-25 07:15 | 55.03400 | -98.56982 | 30941 ft | 504 kts | 38° |
| 2026-04-25 07:15 | 55.09618 | -98.51141 | 30947 ft | 507 kts | 38° |
| 2026-04-25 07:16 | 55.15834 | -98.45288 | 30935 ft | 504 kts | 38° |
| 2026-04-25 07:16 | 55.22007 | -98.39449 | 30943 ft | 507 kts | 38° |
| 2026-04-25 07:17 | 55.28245 | -98.33531 | 30950 ft | 508 kts | 39° |
| 2026-04-25 07:17 | 55.34432 | -98.27645 | 30961 ft | 504 kts | 39° |
| 2026-04-25 07:18 | 55.40603 | -98.21746 | 30964 ft | 506 kts | 40° |
| 2026-04-25 07:18 | 55.46758 | -98.15842 | 30971 ft | 508 kts | 40° |
| 2026-04-25 07:19 | 55.52992 | -98.09842 | 30976 ft | 506 kts | 40° |
| 2026-04-25 07:19 | 55.59211 | -98.03832 | 30980 ft | 508 kts | 40° |
| 2026-04-25 07:20 | 55.65345 | -97.97889 | 30989 ft | 509 kts | 41° |
| 2026-04-25 07:20 | 55.71563 | -97.91833 | 30996 ft | 511 kts | 41° |
| 2026-04-25 07:21 | 55.77718 | -97.85833 | 31001 ft | 507 kts | 41° |
| 2026-04-25 07:21 | 55.83634 | -97.79284 | 31001 ft | 497 kts | 48° |
| 2026-04-25 07:22 | 55.89354 | -97.72150 | 31007 ft | 506 kts | 48° |
| 2026-04-25 07:22 | 55.95041 | -97.65041 | 31010 ft | 497 kts | 48° |
| 2026-04-25 07:23 | 56.00729 | -97.57872 | 31006 ft | 498 kts | 49° |
| 2026-04-25 07:23 | 56.06407 | -97.50690 | 31019 ft | 500 kts | 48° |
| 2026-04-25 07:24 | 56.12053 | -97.43524 | 30993 ft | 500 kts | 49° |
| 2026-04-25 07:24 | 56.17780 | -97.36216 | 30993 ft | 503 kts | 48° |
| 2026-04-25 07:25 | 56.23390 | -97.29055 | 31017 ft | 493 kts | 49° |
| 2026-04-25 07:25 | 56.29035 | -97.21790 | 31021 ft | 502 kts | 49° |
| 2026-04-25 07:26 | 56.34699 | -97.14485 | 31017 ft | 506 kts | 49° |
| 2026-04-25 07:26 | 56.40401 | -97.07111 | 31018 ft | 507 kts | 48° |
| 2026-04-25 07:27 | 56.46081 | -96.99738 | 31018 ft | 507 kts | 48° |
| 2026-04-25 07:27 | 56.51815 | -96.92259 | 31027 ft | 507 kts | 48° |
| 2026-04-25 07:28 | 56.57487 | -96.84843 | 31029 ft | 505 kts | 48° |
| 2026-04-25 07:28 | 56.63179 | -96.77360 | 31045 ft | 508 kts | 48° |
| 2026-04-25 07:29 | 56.68834 | -96.69916 | 31039 ft | 501 kts | 48° |
| 2026-04-25 07:29 | 56.74488 | -96.62418 | 31047 ft | 507 kts | 47° |
| 2026-04-25 07:30 | 56.80131 | -96.54929 | 31054 ft | 505 kts | 48° |
| 2026-04-25 07:30 | 56.85771 | -96.47402 | 31059 ft | 507 kts | 47° |
| 2026-04-25 07:31 | 56.91472 | -96.39767 | 31070 ft | 507 kts | 47° |
| 2026-04-25 07:31 | 56.97096 | -96.32221 | 31077 ft | 497 kts | 48° |
| 2026-04-25 07:32 | 57.02679 | -96.24676 | 31093 ft | 504 kts | 48° |
| 2026-04-25 07:32 | 57.08272 | -96.17103 | 31101 ft | 504 kts | 48° |
| 2026-04-25 07:33 | 57.13900 | -96.09458 | 31098 ft | 498 kts | 48° |
| 2026-04-25 07:33 | 57.19531 | -96.01761 | 31094 ft | 507 kts | 47° |
| 2026-04-25 07:34 | 57.25127 | -95.94099 | 31096 ft | 504 kts | 47° |
| 2026-04-25 07:34 | 57.30732 | -95.86396 | 31105 ft | 499 kts | 47° |
| 2026-04-25 07:35 | 57.36323 | -95.78665 | 31110 ft | 506 kts | 47° |
| 2026-04-25 07:35 | 57.41914 | -95.70925 | 31122 ft | 498 kts | 47° |
| 2026-04-25 07:36 | 57.47472 | -95.63184 | 31132 ft | 502 kts | 47° |
| 2026-04-25 07:36 | 57.53035 | -95.55413 | 31125 ft | 502 kts | 47° |
| 2026-04-25 07:37 | 57.58645 | -95.47544 | 31151 ft | 503 kts | 47° |
| 2026-04-25 07:37 | 57.64229 | -95.39683 | 31155 ft | 500 kts | 46° |
| 2026-04-25 07:38 | 57.69734 | -95.31900 | 31159 ft | 502 kts | 47° |
| 2026-04-25 07:38 | 57.75276 | -95.24035 | 31161 ft | 501 kts | 47° |
| 2026-04-25 07:39 | 57.80809 | -95.16152 | 31164 ft | 501 kts | 47° |
| 2026-04-25 07:39 | 57.86322 | -95.08263 | 31159 ft | 502 kts | 47° |
| 2026-04-25 07:40 | 57.91857 | -95.00316 | 31181 ft | 502 kts | 47° |
| 2026-04-25 07:40 | 57.97404 | -94.92314 | 31179 ft | 504 kts | 46° |
| 2026-04-25 07:41 | 58.02926 | -94.84322 | 31195 ft | 503 kts | 46° |
| 2026-04-25 07:41 | 58.08469 | -94.76268 | 31203 ft | 501 kts | 46° |
| 2026-04-25 07:42 | 58.13967 | -94.68243 | 31205 ft | 504 kts | 46° |
| 2026-04-25 07:42 | 58.19467 | -94.60185 | 31214 ft | 502 kts | 46° |
| 2026-04-25 07:43 | 58.24956 | -94.52113 | 31209 ft | 501 kts | 46° |
| 2026-04-25 07:43 | 58.30473 | -94.43959 | 31229 ft | 504 kts | 45° |
| 2026-04-25 07:44 | 58.35974 | -94.35803 | 31243 ft | 504 kts | 45° |
| 2026-04-25 07:44 | 58.41477 | -94.27609 | 31249 ft | 503 kts | 46° |
| 2026-04-25 07:45 | 58.46992 | -94.19364 | 31263 ft | 502 kts | 46° |
| 2026-04-25 07:45 | 58.52488 | -94.11111 | 31268 ft | 504 kts | 45° |
| 2026-04-25 07:46 | 58.57962 | -94.02860 | 31274 ft | 504 kts | 45° |
| 2026-04-25 07:46 | 58.63444 | -93.94560 | 31285 ft | 506 kts | 45° |
| 2026-04-25 07:47 | 58.68924 | -93.86233 | 31293 ft | 505 kts | 45° |
| 2026-04-25 07:47 | 58.74425 | -93.77838 | 31290 ft | 504 kts | 45° |
| 2026-04-25 07:48 | 58.79908 | -93.69435 | 31299 ft | 505 kts | 45° |
| 2026-04-25 07:48 | 58.85388 | -93.61003 | 31303 ft | 505 kts | 45° |
| 2026-04-25 07:49 | 58.90860 | -93.52544 | 31316 ft | 507 kts | 44° |
| 2026-04-25 07:49 | 58.96326 | -93.44064 | 31316 ft | 506 kts | 45° |
| 2026-04-25 07:50 | 59.01785 | -93.35559 | 31319 ft | 504 kts | 44° |
| 2026-04-25 07:50 | 59.07251 | -93.27004 | 31329 ft | 505 kts | 45° |
| 2026-04-25 07:51 | 59.12691 | -93.18453 | 31314 ft | 505 kts | 45° |
| 2026-04-25 07:51 | 59.18122 | -93.09883 | 31332 ft | 507 kts | 45° |
| 2026-04-25 07:52 | 59.23618 | -93.01173 | 31324 ft | 506 kts | 44° |
| 2026-04-25 07:52 | 59.29050 | -92.92527 | 31328 ft | 506 kts | 45° |
| 2026-04-25 07:53 | 59.34512 | -92.83797 | 31345 ft | 507 kts | 44° |
| 2026-04-25 07:53 | 59.39954 | -92.75061 | 31347 ft | 507 kts | 44° |
| 2026-04-25 07:54 | 59.45390 | -92.66298 | 31360 ft | 506 kts | 44° |
| 2026-04-25 07:54 | 59.50808 | -92.57526 | 31358 ft | 507 kts | 44° |
| 2026-04-25 07:55 | 59.56255 | -92.48669 | 31365 ft | 508 kts | 44° |
| 2026-04-25 07:55 | 59.61671 | -92.39822 | 31363 ft | 508 kts | 44° |
| 2026-04-25 07:56 | 59.67129 | -92.30872 | 31370 ft | 506 kts | 44° |
| 2026-04-25 07:56 | 59.72555 | -92.21931 | 31380 ft | 508 kts | 44° |
| 2026-04-25 07:57 | 59.77972 | -92.12968 | 31386 ft | 507 kts | 44° |
| 2026-04-25 07:57 | 59.83343 | -92.04043 | 31386 ft | 507 kts | 44° |
| 2026-04-25 07:58 | 59.88741 | -91.95032 | 31396 ft | 507 kts | 44° |
| 2026-04-25 07:58 | 59.94154 | -91.85958 | 31399 ft | 507 kts | 44° |
| 2026-04-25 07:59 | 59.99535 | -91.76896 | 31403 ft | 507 kts | 44° |
| 2026-04-25 07:59 | 60.04917 | -91.67793 | 31404 ft | 508 kts | 44° |
| 2026-04-25 08:00 | 60.10321 | -91.58613 | 31414 ft | 508 kts | 43° |
| 2026-04-25 08:00 | 60.15694 | -91.49444 | 31418 ft | 510 kts | 43° |
| 2026-04-25 08:01 | 60.21056 | -91.40253 | 31433 ft | 510 kts | 43° |
| 2026-04-25 08:01 | 60.26449 | -91.30968 | 31436 ft | 509 kts | 44° |
| 2026-04-25 08:02 | 60.31788 | -91.21735 | 31440 ft | 509 kts | 44° |
| 2026-04-25 08:02 | 60.37160 | -91.12403 | 31439 ft | 509 kts | 44° |
| 2026-04-25 08:03 | 60.42496 | -91.03091 | 31444 ft | 510 kts | 44° |
| 2026-04-25 08:03 | 60.47832 | -90.93735 | 31441 ft | 509 kts | 43° |
| 2026-04-25 08:04 | 60.53204 | -90.84277 | 31444 ft | 510 kts | 43° |
| 2026-04-25 08:04 | 60.58542 | -90.74834 | 31450 ft | 510 kts | 43° |
| 2026-04-25 08:05 | 60.63844 | -90.65411 | 31454 ft | 510 kts | 43° |
| 2026-04-25 08:05 | 60.69182 | -90.55884 | 31457 ft | 510 kts | 43° |
| 2026-04-25 08:06 | 60.74522 | -90.46306 | 31461 ft | 511 kts | 43° |
| 2026-04-25 08:06 | 60.79888 | -90.36639 | 31470 ft | 511 kts | 43° |
| 2026-04-25 08:07 | 60.85195 | -90.27032 | 31490 ft | 511 kts | 44° |
| 2026-04-25 08:07 | 60.90484 | -90.17416 | 31489 ft | 510 kts | 43° |
| 2026-04-25 08:08 | 60.95779 | -90.07742 | 31497 ft | 510 kts | 43° |
| 2026-04-25 08:08 | 61.00719 | -89.97308 | 31495 ft | 507 kts | 53° |
| 2026-04-25 08:09 | 61.05068 | -89.85889 | 31493 ft | 507 kts | 54° |
| 2026-04-25 08:09 | 61.09380 | -89.74322 | 31499 ft | 508 kts | 54° |
| 2026-04-25 08:10 | 61.13629 | -89.62789 | 31492 ft | 508 kts | 54° |
| 2026-04-25 08:10 | 61.17895 | -89.51111 | 31497 ft | 508 kts | 54° |
| 2026-04-25 08:11 | 61.22110 | -89.39490 | 31502 ft | 508 kts | 54° |
| 2026-04-25 08:11 | 61.26345 | -89.27737 | 31500 ft | 508 kts | 55° |
| 2026-04-25 08:12 | 61.30539 | -89.16035 | 31506 ft | 508 kts | 55° |
| 2026-04-25 08:12 | 61.34757 | -89.04199 | 31506 ft | 508 kts | 55° |
| 2026-04-25 08:13 | 61.38940 | -88.92402 | 31517 ft | 509 kts | 54° |
| 2026-04-25 08:14 | 61.45215 | -88.74586 | 31539 ft | 509 kts | 54° |
| 2026-04-25 08:14 | 61.49404 | -88.62614 | 31542 ft | 510 kts | 54° |
| 2026-04-25 08:15 | 61.53573 | -88.50637 | 31551 ft | 509 kts | 54° |
| 2026-04-25 08:15 | 61.57717 | -88.38671 | 31554 ft | 510 kts | 54° |
| 2026-04-25 08:16 | 61.61878 | -88.26592 | 31556 ft | 509 kts | 55° |
| 2026-04-25 08:16 | 61.66024 | -88.14493 | 31559 ft | 510 kts | 55° |
| 2026-04-25 08:17 | 61.70169 | -88.02333 | 31560 ft | 511 kts | 55° |
| 2026-04-25 08:17 | 61.74275 | -87.90225 | 31569 ft | 511 kts | 54° |
| 2026-04-25 08:18 | 61.78363 | -87.78106 | 31572 ft | 511 kts | 54° |
| 2026-04-25 08:18 | 61.82474 | -87.65852 | 31574 ft | 511 kts | 54° |
| 2026-04-25 08:19 | 61.86562 | -87.53603 | 31572 ft | 510 kts | 54° |
| 2026-04-25 08:19 | 61.90626 | -87.41361 | 31587 ft | 512 kts | 54° |
| 2026-04-25 08:20 | 61.94711 | -87.28992 | 31579 ft | 512 kts | 55° |
| 2026-04-25 08:20 | 61.98750 | -87.16690 | 31589 ft | 512 kts | 55° |
| 2026-04-25 08:21 | 62.02784 | -87.04343 | 31594 ft | 511 kts | 55° |
| 2026-04-25 08:21 | 62.06835 | -86.91873 | 31592 ft | 511 kts | 55° |
| 2026-04-25 08:22 | 62.10845 | -86.79463 | 31591 ft | 512 kts | 55° |
| 2026-04-25 08:22 | 62.14885 | -86.66893 | 31592 ft | 513 kts | 55° |
| 2026-04-25 08:23 | 62.18916 | -86.54281 | 31601 ft | 514 kts | 55° |
| 2026-04-25 08:23 | 62.22955 | -86.41574 | 31608 ft | 515 kts | 54° |
| 2026-04-25 08:24 | 62.26935 | -86.28982 | 31604 ft | 514 kts | 56° |
| 2026-04-25 08:24 | 62.30925 | -86.16292 | 31604 ft | 515 kts | 56° |
| 2026-04-25 08:25 | 62.34914 | -86.03529 | 31605 ft | 516 kts | 56° |
| 2026-04-25 08:25 | 62.38892 | -85.90736 | 31619 ft | 516 kts | 56° |
| 2026-04-25 08:26 | 62.42851 | -85.77928 | 31632 ft | 517 kts | 55° |
| 2026-04-25 08:26 | 62.46820 | -85.65015 | 31639 ft | 518 kts | 55° |
| 2026-04-25 08:27 | 62.50747 | -85.52170 | 31638 ft | 517 kts | 55° |
| 2026-04-25 08:27 | 62.54714 | -85.39117 | 31648 ft | 519 kts | 55° |
| 2026-04-25 08:28 | 62.58643 | -85.26115 | 31638 ft | 517 kts | 56° |
| 2026-04-25 08:28 | 62.62576 | -85.13024 | 31641 ft | 519 kts | 56° |
| 2026-04-25 08:29 | 62.66494 | -84.99911 | 31635 ft | 519 kts | 56° |
| 2026-04-25 08:29 | 62.70432 | -84.86651 | 31644 ft | 520 kts | 56° |
| 2026-04-25 08:30 | 62.74337 | -84.73427 | 31657 ft | 522 kts | 56° |
| 2026-04-25 08:30 | 62.78239 | -84.60136 | 31668 ft | 520 kts | 56° |
| 2026-04-25 08:31 | 62.82117 | -84.46847 | 31661 ft | 521 kts | 56° |
| 2026-04-25 08:31 | 62.85987 | -84.33511 | 31671 ft | 521 kts | 56° |
| 2026-04-25 08:32 | 62.89862 | -84.20074 | 31683 ft | 523 kts | 56° |
| 2026-04-25 08:32 | 62.93697 | -84.06698 | 31673 ft | 522 kts | 56° |
| 2026-04-25 08:33 | 62.97543 | -83.93204 | 31668 ft | 524 kts | 56° |
| 2026-04-25 08:33 | 63.01408 | -83.79562 | 31679 ft | 526 kts | 56° |
| 2026-04-25 08:34 | 63.05231 | -83.65987 | 31676 ft | 524 kts | 56° |
| 2026-04-25 08:34 | 63.09048 | -83.52352 | 31688 ft | 527 kts | 56° |
| 2026-04-25 08:35 | 63.12856 | -83.38663 | 31692 ft | 524 kts | 56° |
| 2026-04-25 08:35 | 63.16672 | -83.24865 | 31700 ft | 528 kts | 57° |
| 2026-04-25 08:36 | 63.20457 | -83.11090 | 31696 ft | 525 kts | 56° |
| 2026-04-25 08:36 | 63.24236 | -82.97257 | 31711 ft | 527 kts | 56° |
| 2026-04-25 08:37 | 63.28007 | -82.83366 | 31700 ft | 525 kts | 56° |
| 2026-04-25 08:37 | 63.31771 | -82.69416 | 31704 ft | 527 kts | 56° |
| 2026-04-25 08:38 | 63.35502 | -82.55499 | 31719 ft | 527 kts | 56° |
| 2026-04-25 08:38 | 63.39236 | -82.41482 | 31719 ft | 528 kts | 56° |
| 2026-04-25 08:39 | 63.42965 | -82.27401 | 31715 ft | 529 kts | 56° |
| 2026-04-25 08:39 | 63.46685 | -82.13257 | 31716 ft | 529 kts | 56° |
| 2026-04-25 08:40 | 63.50393 | -81.99075 | 31727 ft | 531 kts | 56° |
| 2026-04-25 08:40 | 63.54101 | -81.84800 | 31730 ft | 531 kts | 56° |
| 2026-04-25 08:41 | 63.57768 | -81.70589 | 31729 ft | 532 kts | 56° |
| 2026-04-25 08:41 | 63.61430 | -81.56307 | 31726 ft | 529 kts | 56° |
| 2026-04-25 08:42 | 63.65112 | -81.41858 | 31733 ft | 531 kts | 56° |
| 2026-04-25 08:42 | 63.68761 | -81.27441 | 31722 ft | 532 kts | 57° |
| 2026-04-25 08:43 | 63.72404 | -81.12955 | 31713 ft | 531 kts | 57° |
| 2026-04-25 08:43 | 63.76023 | -80.98467 | 31707 ft | 531 kts | 56° |
| 2026-04-25 08:44 | 63.79616 | -80.83991 | 31714 ft | 528 kts | 57° |
| 2026-04-25 08:44 | 63.83217 | -80.69387 | 31727 ft | 531 kts | 56° |
| 2026-04-25 08:45 | 63.86783 | -80.54827 | 31739 ft | 529 kts | 56° |
| 2026-04-25 08:45 | 63.90339 | -80.40209 | 31743 ft | 531 kts | 56° |
| 2026-04-25 08:46 | 63.93885 | -80.25535 | 31742 ft | 530 kts | 57° |
| 2026-04-25 08:46 | 63.97443 | -80.10714 | 31737 ft | 532 kts | 57° |
| 2026-04-25 08:47 | 64.00359 | -79.95386 | 31746 ft | 535 kts | 68° |
| 2026-04-25 08:47 | 64.02718 | -79.79199 | 31748 ft | 539 kts | 68° |
| 2026-04-25 08:48 | 64.05000 | -79.62940 | 31748 ft | 540 kts | 69° |
| 2026-04-25 08:48 | 64.07240 | -79.46617 | 31745 ft | 538 kts | 69° |
| 2026-04-25 08:49 | 64.09446 | -79.30276 | 31735 ft | 541 kts | 70° |
| 2026-04-25 08:49 | 64.11620 | -79.13934 | 31743 ft | 540 kts | 70° |
| 2026-04-25 08:50 | 64.13789 | -78.97428 | 31738 ft | 539 kts | 70° |
| 2026-04-25 08:50 | 64.15915 | -78.81065 | 31752 ft | 540 kts | 70° |
| 2026-04-25 08:51 | 64.18037 | -78.64552 | 31759 ft | 540 kts | 70° |
| 2026-04-25 08:51 | 64.20116 | -78.48198 | 31759 ft | 540 kts | 70° |
| 2026-04-25 08:52 | 64.22202 | -78.31612 | 31748 ft | 541 kts | 71° |
| 2026-04-25 08:52 | 64.24262 | -78.15059 | 31744 ft | 542 kts | 71° |
| 2026-04-25 08:53 | 64.26316 | -77.98366 | 31741 ft | 540 kts | 70° |
| 2026-04-25 08:53 | 64.28339 | -77.81760 | 31745 ft | 542 kts | 70° |
| 2026-04-25 08:54 | 64.30336 | -77.65179 | 31740 ft | 542 kts | 70° |
| 2026-04-25 08:54 | 64.32334 | -77.48412 | 31732 ft | 542 kts | 70° |
| 2026-04-25 08:55 | 64.34296 | -77.31769 | 31732 ft | 544 kts | 71° |
| 2026-04-25 08:55 | 64.36266 | -77.14866 | 31728 ft | 546 kts | 71° |
| 2026-04-25 08:56 | 64.38211 | -76.97979 | 31722 ft | 544 kts | 71° |
| 2026-04-25 08:56 | 64.40131 | -76.81119 | 31710 ft | 544 kts | 71° |
| 2026-04-25 08:57 | 64.42030 | -76.64259 | 31713 ft | 546 kts | 70° |
| 2026-04-25 08:57 | 64.43920 | -76.47276 | 31720 ft | 543 kts | 71° |
| 2026-04-25 08:58 | 64.45782 | -76.30352 | 31717 ft | 545 kts | 72° |
| 2026-04-25 08:58 | 64.47618 | -76.13462 | 31731 ft | 543 kts | 71° |
| 2026-04-25 08:59 | 64.49442 | -75.96486 | 31740 ft | 545 kts | 71° |
| 2026-04-25 08:59 | 64.51259 | -75.79356 | 31765 ft | 544 kts | 71° |
| 2026-04-25 09:00 | 64.53040 | -75.62368 | 31766 ft | 544 kts | 71° |
| 2026-04-25 09:00 | 64.54807 | -75.45299 | 31765 ft | 544 kts | 71° |
| 2026-04-25 09:01 | 64.56554 | -75.28204 | 31726 ft | 544 kts | 72° |
| 2026-04-25 09:01 | 64.58284 | -75.11072 | 31720 ft | 545 kts | 72° |
| 2026-04-25 09:02 | 64.59986 | -74.93999 | 31755 ft | 546 kts | 72° |
| 2026-04-25 09:02 | 64.61684 | -74.76740 | 31763 ft | 545 kts | 72° |
| 2026-04-25 09:03 | 64.63356 | -74.59525 | 31765 ft | 548 kts | 72° |
| 2026-04-25 09:03 | 64.65009 | -74.42256 | 31766 ft | 546 kts | 72° |
| 2026-04-25 09:04 | 64.66638 | -74.25032 | 31756 ft | 547 kts | 73° |
| 2026-04-25 09:04 | 64.68256 | -74.07686 | 31756 ft | 546 kts | 73° |
| 2026-04-25 09:05 | 64.69855 | -73.90293 | 31752 ft | 546 kts | 72° |
| 2026-04-25 09:05 | 64.71429 | -73.72936 | 31732 ft | 547 kts | 72° |
| 2026-04-25 09:06 | 64.72983 | -73.55567 | 31721 ft | 546 kts | 72° |
| 2026-04-25 09:06 | 64.74509 | -73.38245 | 31724 ft | 545 kts | 72° |
| 2026-04-25 09:07 | 64.76031 | -73.20748 | 31721 ft | 548 kts | 74° |
| 2026-04-25 09:07 | 64.77524 | -73.03285 | 31710 ft | 545 kts | 73° |
| 2026-04-25 09:08 | 64.78992 | -72.85877 | 31708 ft | 547 kts | 73° |
| 2026-04-25 09:08 | 64.80442 | -72.68423 | 31698 ft | 545 kts | 73° |
| 2026-04-25 09:09 | 64.81883 | -72.50813 | 31711 ft | 546 kts | 73° |
| 2026-04-25 09:09 | 64.83289 | -72.33360 | 31705 ft | 546 kts | 75° |
| 2026-04-25 09:10 | 64.84689 | -72.15710 | 31697 ft | 549 kts | 75° |
| 2026-04-25 09:10 | 64.86058 | -71.98158 | 31699 ft | 547 kts | 74° |
| 2026-04-25 09:11 | 64.88068 | -71.71871 | 31711 ft | 548 kts | 74° |
| 2026-04-25 09:11 | 64.89385 | -71.54271 | 31716 ft | 548 kts | 74° |
| 2026-04-25 09:12 | 64.90681 | -71.36671 | 31717 ft | 547 kts | 74° |
| 2026-04-25 09:12 | 64.91966 | -71.18926 | 31712 ft | 549 kts | 75° |
| 2026-04-25 09:13 | 64.93214 | -71.01363 | 31708 ft | 549 kts | 75° |
| 2026-04-25 09:13 | 64.94443 | -70.83762 | 31704 ft | 546 kts | 75° |
| 2026-04-25 09:14 | 64.95664 | -70.66009 | 31703 ft | 549 kts | 75° |
| 2026-04-25 09:14 | 64.96864 | -70.48189 | 31697 ft | 546 kts | 75° |
| 2026-04-25 09:15 | 64.98031 | -70.30553 | 31682 ft | 549 kts | 76° |
| 2026-04-25 09:15 | 64.99181 | -70.12827 | 31678 ft | 549 kts | 76° |
| 2026-04-25 09:16 | 65.00346 | -69.95010 | 31664 ft | 547 kts | 72° |
| 2026-04-25 09:16 | 65.02366 | -69.77967 | 31659 ft | 539 kts | 66° |
| 2026-04-25 09:17 | 65.05540 | -69.52451 | 31638 ft | 541 kts | 66° |
| 2026-04-25 09:18 | 65.07576 | -69.35408 | 31633 ft | 539 kts | 66° |
| 2026-04-25 09:18 | 65.09592 | -69.18179 | 31614 ft | 543 kts | 68° |
| 2026-04-25 09:19 | 65.11557 | -69.01052 | 31625 ft | 541 kts | 68° |
| 2026-04-25 09:19 | 65.13506 | -68.83830 | 31632 ft | 542 kts | 68° |
| 2026-04-25 09:20 | 65.15440 | -68.66482 | 31621 ft | 541 kts | 68° |
| 2026-04-25 09:20 | 65.17339 | -68.49234 | 31614 ft | 545 kts | 68° |
| 2026-04-25 09:21 | 65.19236 | -68.31796 | 31612 ft | 545 kts | 69° |
| 2026-04-25 09:21 | 65.21106 | -68.14373 | 31605 ft | 544 kts | 69° |
| 2026-04-25 09:22 | 65.22956 | -67.96932 | 31618 ft | 549 kts | 69° |
| 2026-04-25 09:22 | 65.24805 | -67.79255 | 31625 ft | 542 kts | 69° |
| 2026-04-25 09:23 | 65.26618 | -67.61732 | 31626 ft | 547 kts | 69° |
| 2026-04-25 09:23 | 65.28400 | -67.44267 | 31624 ft | 544 kts | 69° |
| 2026-04-25 09:24 | 65.30184 | -67.26575 | 31665 ft | 547 kts | 70° |
| 2026-04-25 09:24 | 65.31926 | -67.09059 | 31673 ft | 545 kts | 70° |
| 2026-04-25 09:25 | 65.33659 | -66.91419 | 31663 ft | 548 kts | 70° |
| 2026-04-25 09:25 | 65.35381 | -66.73632 | 31680 ft | 548 kts | 70° |
| 2026-04-25 09:26 | 65.37071 | -66.55965 | 31677 ft | 549 kts | 70° |
| 2026-04-25 09:26 | 65.38751 | -66.38147 | 31668 ft | 549 kts | 70° |
| 2026-04-25 09:27 | 65.40413 | -66.20275 | 31649 ft | 554 kts | 71° |
| 2026-04-25 09:27 | 65.42059 | -66.02319 | 31640 ft | 550 kts | 71° |
| 2026-04-25 09:28 | 65.43678 | -65.84398 | 31658 ft | 550 kts | 71° |
| 2026-04-25 09:28 | 65.45283 | -65.66383 | 31650 ft | 550 kts | 71° |
| 2026-04-25 09:29 | 65.46862 | -65.48402 | 31635 ft | 552 kts | 71° |
| 2026-04-25 09:29 | 65.48415 | -65.30456 | 31627 ft | 550 kts | 72° |
| 2026-04-25 09:30 | 65.49954 | -65.12408 | 31590 ft | 553 kts | 72° |
| 2026-04-25 09:30 | 65.51473 | -64.94293 | 31503 ft | 552 kts | 72° |
| 2026-04-25 09:31 | 65.52965 | -64.76247 | 31507 ft | 551 kts | 72° |
| 2026-04-25 09:31 | 65.54449 | -64.58011 | 31502 ft | 553 kts | 72° |
| 2026-04-25 09:32 | 65.55907 | -64.39803 | 31496 ft | 550 kts | 72° |
| 2026-04-25 09:32 | 65.57340 | -64.21618 | 31476 ft | 552 kts | 73° |
| 2026-04-25 09:33 | 65.58753 | -64.03366 | 31465 ft | 548 kts | 73° |
| 2026-04-25 09:33 | 65.60130 | -63.85329 | 31492 ft | 553 kts | 74° |
| 2026-04-25 09:34 | 65.61492 | -63.67153 | 31523 ft | 551 kts | 73° |
| 2026-04-25 09:34 | 65.62829 | -63.49005 | 31530 ft | 550 kts | 74° |
| 2026-04-25 09:35 | 65.64155 | -63.30702 | 31507 ft | 551 kts | 75° |
| 2026-04-25 09:35 | 65.65445 | -63.12564 | 31480 ft | 549 kts | 75° |
| 2026-04-25 09:36 | 65.66720 | -62.94324 | 31550 ft | 550 kts | 75° |
| 2026-04-25 09:36 | 65.67967 | -62.76161 | 31540 ft | 551 kts | 75° |
| 2026-04-25 09:37 | 65.69195 | -62.57945 | 31568 ft | 552 kts | 76° |
| 2026-04-25 09:37 | 65.70400 | -62.39697 | 31593 ft | 549 kts | 75° |
| 2026-04-25 09:38 | 65.71596 | -62.21279 | 31580 ft | 550 kts | 77° |
| 2026-04-25 09:38 | 65.72755 | -62.03057 | 31586 ft | 552 kts | 76° |
| 2026-04-25 09:39 | 65.73898 | -61.84726 | 31584 ft | 551 kts | 76° |
| 2026-04-25 09:39 | 65.75017 | -61.66402 | 31587 ft | 549 kts | 77° |
| 2026-04-25 09:40 | 65.76653 | -61.38910 | 31590 ft | 547 kts | 77° |
| 2026-04-25 09:40 | 65.77718 | -61.20551 | 31579 ft | 549 kts | 78° |
| 2026-04-25 09:41 | 65.78765 | -61.02095 | 31571 ft | 549 kts | 78° |
| 2026-04-25 09:41 | 65.79782 | -60.83770 | 31568 ft | 549 kts | 78° |
| 2026-04-25 09:42 | 65.80781 | -60.65368 | 31565 ft | 551 kts | 78° |
| 2026-04-25 09:42 | 65.81758 | -60.46926 | 31567 ft | 550 kts | 78° |
| 2026-04-25 09:43 | 65.82714 | -60.28450 | 31561 ft | 550 kts | 79° |
| 2026-04-25 09:43 | 65.83643 | -60.10075 | 31561 ft | 551 kts | 79° |
| 2026-04-25 09:44 | 65.84554 | -59.91582 | 31569 ft | 553 kts | 79° |
| 2026-04-25 09:44 | 65.85448 | -59.72973 | 31568 ft | 550 kts | 79° |
| 2026-04-25 09:45 | 65.86317 | -59.54379 | 31566 ft | 551 kts | 79° |
| 2026-04-25 09:45 | 65.87157 | -59.35963 | 31564 ft | 552 kts | 80° |
| 2026-04-25 09:46 | 65.87979 | -59.17412 | 31551 ft | 552 kts | 81° |
| 2026-04-25 09:46 | 65.88779 | -58.98839 | 31557 ft | 551 kts | 81° |
| 2026-04-25 09:47 | 65.89558 | -58.80234 | 31560 ft | 551 kts | 81° |
| 2026-04-25 09:47 | 65.90318 | -58.61522 | 31558 ft | 553 kts | 81° |
| 2026-04-25 09:48 | 65.91038 | -58.42970 | 31551 ft | 551 kts | 81° |
| 2026-04-25 09:48 | 65.91737 | -58.24361 | 31544 ft | 552 kts | 83° |
| 2026-04-25 09:49 | 65.92418 | -58.05638 | 31550 ft | 552 kts | 82° |
| 2026-04-25 09:49 | 65.93073 | -57.86969 | 31535 ft | 553 kts | 82° |
| 2026-04-25 09:50 | 65.93706 | -57.68264 | 31520 ft | 552 kts | 83° |
| 2026-04-25 09:50 | 65.94313 | -57.49656 | 31511 ft | 553 kts | 83° |
| 2026-04-25 09:51 | 65.94902 | -57.30913 | 31493 ft | 553 kts | 84° |
| 2026-04-25 09:51 | 65.95469 | -57.12099 | 31488 ft | 554 kts | 84° |
| 2026-04-25 09:52 | 65.96004 | -56.93638 | 31485 ft | 555 kts | 84° |
| 2026-04-25 09:52 | 65.96524 | -56.74859 | 31490 ft | 555 kts | 84° |
| 2026-04-25 09:53 | 65.97024 | -56.55972 | 31482 ft | 555 kts | 84° |
| 2026-04-25 09:53 | 65.97499 | -56.37173 | 31483 ft | 556 kts | 84° |
| 2026-04-25 09:54 | 65.97952 | -56.18308 | 31465 ft | 555 kts | 86° |
| 2026-04-25 09:54 | 65.98385 | -55.99320 | 31462 ft | 557 kts | 86° |
| 2026-04-25 09:55 | 65.98792 | -55.80440 | 31464 ft | 557 kts | 86° |
| 2026-04-25 09:55 | 65.99174 | -55.61557 | 31457 ft | 556 kts | 86° |
| 2026-04-25 09:56 | 65.99538 | -55.42532 | 31435 ft | 556 kts | 86° |
| 2026-04-25 09:56 | 65.99874 | -55.23690 | 31418 ft | 557 kts | 87° |
| 2026-04-25 09:57 | 66.00188 | -55.04836 | 31419 ft | 555 kts | 87° |
| 2026-04-25 09:57 | 66.00477 | -54.86024 | 31415 ft | 557 kts | 87° |
| 2026-04-25 09:58 | 66.00745 | -54.67095 | 31409 ft | 556 kts | 88° |
| 2026-04-25 09:58 | 66.00992 | -54.48049 | 31398 ft | 558 kts | 87° |
| 2026-04-25 09:59 | 66.01214 | -54.29078 | 31385 ft | 557 kts | 89° |
| 2026-04-25 09:59 | 66.01411 | -54.10159 | 31369 ft | 556 kts | 88° |
| 2026-04-25 10:00 | 66.01586 | -53.91229 | 31358 ft | 557 kts | 88° |
| 2026-04-25 10:00 | 66.01739 | -53.72224 | 31347 ft | 555 kts | 89° |
| 2026-04-25 10:01 | 66.01867 | -53.53307 | 31342 ft | 555 kts | 88° |
| 2026-04-25 10:01 | 66.01971 | -53.34446 | 31312 ft | 557 kts | 90° |
| 2026-04-25 10:02 | 66.02054 | -53.15538 | 31272 ft | 555 kts | 90° |
| 2026-04-25 10:02 | 66.02113 | -52.96621 | 31280 ft | 554 kts | 90° |
| 2026-04-25 10:03 | 66.02148 | -52.77652 | 31224 ft | 555 kts | 90° |
| 2026-04-25 10:03 | 66.02161 | -52.58798 | 31214 ft | 554 kts | 90° |
| 2026-04-25 10:04 | 66.02150 | -52.39978 | 31212 ft | 551 kts | 90° |
| 2026-04-25 10:04 | 66.02116 | -52.21082 | 31107 ft | 551 kts | 91° |
| 2026-04-25 10:05 | 66.02060 | -52.02445 | 31229 ft | 551 kts | 91° |
| 2026-04-25 10:05 | 66.01981 | -51.83682 | 31222 ft | 552 kts | 91° |
| 2026-04-25 10:06 | 66.01878 | -51.64800 | 31127 ft | 549 kts | 91° |
| 2026-04-25 10:06 | 66.01753 | -51.46088 | 31134 ft | 551 kts | 91° |
| 2026-04-25 10:07 | 66.01605 | -51.27255 | 31117 ft | 551 kts | 92° |
| 2026-04-25 10:07 | 66.01434 | -51.08503 | 31126 ft | 550 kts | 92° |
| 2026-04-25 10:08 | 66.01241 | -50.89759 | 31131 ft | 552 kts | 92° |
| 2026-04-25 10:08 | 66.01025 | -50.70975 | 31126 ft | 550 kts | 92° |
| 2026-04-25 10:09 | 66.00787 | -50.52307 | 31130 ft | 549 kts | 92° |
| 2026-04-25 10:09 | 66.00525 | -50.33554 | 31132 ft | 548 kts | 93° |
| 2026-04-25 10:10 | 66.00242 | -50.14869 | 31148 ft | 547 kts | 93° |
| 2026-04-25 10:10 | 65.99935 | -49.96211 | 31149 ft | 546 kts | 93° |
| 2026-04-25 10:11 | 65.99609 | -49.77696 | 31152 ft | 546 kts | 94° |
| 2026-04-25 10:11 | 65.99259 | -49.59141 | 31147 ft | 544 kts | 93° |
| 2026-04-25 10:12 | 65.98890 | -49.40689 | 31149 ft | 543 kts | 94° |
| 2026-04-25 10:13 | 65.98296 | -49.13101 | 31129 ft | 542 kts | 94° |
| 2026-04-25 10:13 | 65.97871 | -48.94671 | 31130 ft | 541 kts | 94° |
| 2026-04-25 10:14 | 65.97427 | -48.76368 | 31111 ft | 541 kts | 94° |
| 2026-04-25 10:14 | 65.96960 | -48.58049 | 31089 ft | 539 kts | 94° |
| 2026-04-25 10:15 | 65.96474 | -48.39771 | 31070 ft | 540 kts | 94° |
| 2026-04-25 10:15 | 65.95965 | -48.21495 | 31045 ft | 537 kts | 95° |
| 2026-04-25 10:16 | 65.95434 | -48.03200 | 31011 ft | 537 kts | 96° |
| 2026-04-25 10:16 | 65.94883 | -47.84993 | 30998 ft | 538 kts | 95° |
| 2026-04-25 10:17 | 65.94311 | -47.66787 | 30981 ft | 539 kts | 95° |
| 2026-04-25 10:17 | 65.93716 | -47.48542 | 30978 ft | 537 kts | 95° |
| 2026-04-25 10:18 | 65.93102 | -47.30390 | 30962 ft | 539 kts | 96° |
| 2026-04-25 10:18 | 65.92465 | -47.12221 | 30973 ft | 536 kts | 96° |
| 2026-04-25 10:19 | 65.91808 | -46.94070 | 30971 ft | 537 kts | 96° |
| 2026-04-25 10:19 | 65.91134 | -46.76056 | 30973 ft | 533 kts | 96° |
| 2026-04-25 10:20 | 65.90436 | -46.57971 | 30975 ft | 533 kts | 96° |
| 2026-04-25 10:20 | 65.89719 | -46.39985 | 30972 ft | 531 kts | 96° |
| 2026-04-25 10:21 | 65.88985 | -46.22065 | 30960 ft | 530 kts | 97° |
| 2026-04-25 10:21 | 65.88232 | -46.04236 | 30952 ft | 530 kts | 97° |
| 2026-04-25 10:22 | 65.87463 | -45.86481 | 30962 ft | 528 kts | 97° |
| 2026-04-25 10:22 | 65.86674 | -45.68785 | 30972 ft | 526 kts | 96° |
| 2026-04-25 10:23 | 65.85864 | -45.51069 | 30980 ft | 524 kts | 96° |
| 2026-04-25 10:23 | 65.85031 | -45.33316 | 30963 ft | 525 kts | 97° |
| 2026-04-25 10:24 | 65.84172 | -45.15465 | 31449 ft | 533 kts | 97° |
| 2026-04-25 10:24 | 65.83737 | -45.06589 | 32325 ft | 525 kts | 97° |
| 2026-04-25 10:24 | 65.83302 | -44.97810 | 32899 ft | 523 kts | 97° |
| 2026-04-25 10:25 | 65.82413 | -44.80210 | 32972 ft | 519 kts | 97° |
| 2026-04-25 10:25 | 65.81515 | -44.62815 | 32970 ft | 519 kts | 97° |
| 2026-04-25 10:26 | 65.80595 | -44.45415 | 32974 ft | 519 kts | 97° |
| 2026-04-25 10:26 | 65.79656 | -44.28017 | 32970 ft | 518 kts | 98° |
| 2026-04-25 10:27 | 65.78706 | -44.10807 | 32979 ft | 516 kts | 98° |
| 2026-04-25 10:27 | 65.77731 | -43.93501 | 32983 ft | 517 kts | 98° |
| 2026-04-25 10:28 | 65.76743 | -43.76315 | 32987 ft | 516 kts | 98° |
| 2026-04-25 10:28 | 65.75732 | -43.59087 | 32986 ft | 514 kts | 98° |
| 2026-04-25 10:29 | 65.74706 | -43.41939 | 32982 ft | 515 kts | 98° |
| 2026-04-25 10:29 | 65.73657 | -43.24755 | 32976 ft | 514 kts | 99° |
| 2026-04-25 10:30 | 65.72595 | -43.07678 | 32975 ft | 514 kts | 99° |
| 2026-04-25 10:30 | 65.71518 | -42.90675 | 32982 ft | 512 kts | 99° |
| 2026-04-25 10:31 | 65.70417 | -42.73609 | 32976 ft | 511 kts | 99° |
| 2026-04-25 10:31 | 65.69303 | -42.56650 | 32960 ft | 512 kts | 99° |
| 2026-04-25 10:32 | 65.68166 | -42.39651 | 32963 ft | 509 kts | 99° |
| 2026-04-25 10:32 | 65.67017 | -42.22755 | 32942 ft | 509 kts | 100° |
| 2026-04-25 10:33 | 65.65857 | -42.05988 | 32942 ft | 507 kts | 100° |
| 2026-04-25 10:33 | 65.64681 | -41.89265 | 32968 ft | 506 kts | 100° |
| 2026-04-25 10:34 | 65.63479 | -41.72472 | 32989 ft | 506 kts | 100° |
| 2026-04-25 10:34 | 65.62268 | -41.55806 | 33008 ft | 504 kts | 100° |
| 2026-04-25 10:35 | 65.61041 | -41.39193 | 33026 ft | 504 kts | 100° |
| 2026-04-25 10:35 | 65.59792 | -41.22546 | 33035 ft | 503 kts | 101° |
| 2026-04-25 10:36 | 65.58530 | -41.05976 | 33036 ft | 504 kts | 102° |
| 2026-04-25 10:36 | 65.57255 | -40.89484 | 33035 ft | 502 kts | 102° |
| 2026-04-25 10:37 | 65.55953 | -40.72906 | 33027 ft | 504 kts | 102° |
| 2026-04-25 10:37 | 65.54639 | -40.56412 | 33039 ft | 505 kts | 102° |
| 2026-04-25 10:38 | 65.53298 | -40.39818 | 33060 ft | 505 kts | 102° |
| 2026-04-25 10:38 | 65.51943 | -40.23300 | 33086 ft | 506 kts | 103° |
| 2026-04-25 10:39 | 65.50569 | -40.06782 | 33106 ft | 505 kts | 103° |
| 2026-04-25 10:39 | 65.49381 | -39.90288 | 33137 ft | 505 kts | 100° |
| 2026-04-25 10:40 | 65.48292 | -39.73593 | 33129 ft | 505 kts | 100° |
| 2026-04-25 10:40 | 65.47186 | -39.56888 | 33134 ft | 505 kts | 101° |
| 2026-04-25 10:41 | 65.46063 | -39.40223 | 33138 ft | 505 kts | 101° |
| 2026-04-25 10:41 | 65.44920 | -39.23540 | 33138 ft | 505 kts | 102° |
| 2026-04-25 10:42 | 65.43762 | -39.06931 | 33138 ft | 506 kts | 102° |
| 2026-04-25 10:42 | 65.42592 | -38.90398 | 33134 ft | 505 kts | 102° |
| 2026-04-25 10:43 | 65.41402 | -38.73885 | 33149 ft | 505 kts | 102° |
| 2026-04-25 10:43 | 65.40194 | -38.57363 | 33150 ft | 505 kts | 102° |
| 2026-04-25 10:44 | 65.38962 | -38.40774 | 33156 ft | 505 kts | 102° |
| 2026-04-25 10:44 | 65.37717 | -38.24289 | 33153 ft | 505 kts | 103° |
| 2026-04-25 10:45 | 65.36447 | -38.07713 | 33160 ft | 506 kts | 103° |
| 2026-04-25 10:45 | 65.35169 | -37.91276 | 33161 ft | 506 kts | 103° |
| 2026-04-25 10:46 | 65.33863 | -37.74741 | 33165 ft | 506 kts | 103° |
| 2026-04-25 10:46 | 65.32539 | -37.58233 | 33163 ft | 506 kts | 103° |
| 2026-04-25 10:47 | 65.31194 | -37.41681 | 33156 ft | 506 kts | 103° |
| 2026-04-25 10:47 | 65.29839 | -37.25255 | 33158 ft | 506 kts | 104° |
| 2026-04-25 10:48 | 65.28468 | -37.08872 | 33154 ft | 506 kts | 105° |
| 2026-04-25 10:48 | 65.27077 | -36.92469 | 33149 ft | 505 kts | 105° |
| 2026-04-25 10:49 | 65.25657 | -36.75967 | 33153 ft | 505 kts | 105° |
| 2026-04-25 10:49 | 65.24230 | -36.59606 | 33155 ft | 506 kts | 105° |
| 2026-04-25 10:50 | 65.22785 | -36.43263 | 33151 ft | 506 kts | 105° |
| 2026-04-25 10:50 | 65.21331 | -36.27023 | 33149 ft | 506 kts | 106° |
| 2026-04-25 10:51 | 65.19848 | -36.10678 | 33150 ft | 505 kts | 106° |
| 2026-04-25 10:51 | 65.18349 | -35.94380 | 33150 ft | 505 kts | 106° |
| 2026-04-25 10:52 | 65.16843 | -35.78203 | 33149 ft | 507 kts | 106° |
| 2026-04-25 10:52 | 65.15301 | -35.61859 | 33153 ft | 507 kts | 106° |
| 2026-04-25 10:53 | 65.13743 | -35.45544 | 33155 ft | 507 kts | 106° |
| 2026-04-25 10:53 | 65.12177 | -35.29347 | 33160 ft | 506 kts | 107° |
| 2026-04-25 10:54 | 65.10590 | -35.13134 | 33158 ft | 507 kts | 107° |
| 2026-04-25 10:54 | 65.08981 | -34.96902 | 33167 ft | 507 kts | 107° |
| 2026-04-25 10:55 | 65.07340 | -34.80544 | 33167 ft | 508 kts | 107° |
| 2026-04-25 10:55 | 65.05705 | -34.64437 | 33169 ft | 508 kts | 107° |
| 2026-04-25 10:56 | 65.04031 | -34.48142 | 33163 ft | 508 kts | 107° |
| 2026-04-25 10:56 | 65.02355 | -34.32008 | 33157 ft | 507 kts | 108° |
| 2026-04-25 10:57 | 65.00671 | -34.15989 | 33151 ft | 508 kts | 108° |
| 2026-04-25 10:57 | 64.98953 | -33.99843 | 33149 ft | 508 kts | 108° |
| 2026-04-25 10:58 | 64.97220 | -33.83728 | 33146 ft | 508 kts | 108° |
| 2026-04-25 10:58 | 64.95467 | -33.67611 | 33143 ft | 507 kts | 108° |
| 2026-04-25 10:59 | 64.93707 | -33.51610 | 33140 ft | 508 kts | 108° |
| 2026-04-25 10:59 | 64.91926 | -33.35600 | 33133 ft | 507 kts | 108° |
| 2026-04-25 11:00 | 64.90125 | -33.19582 | 33127 ft | 507 kts | 109° |
| 2026-04-25 11:00 | 64.88306 | -33.03585 | 33138 ft | 506 kts | 109° |
| 2026-04-25 11:01 | 64.86475 | -32.87642 | 33133 ft | 507 kts | 109° |
| 2026-04-25 11:01 | 64.84622 | -32.71688 | 33133 ft | 506 kts | 109° |
| 2026-04-25 11:02 | 64.82756 | -32.55790 | 33135 ft | 506 kts | 109° |
| 2026-04-25 11:02 | 64.80881 | -32.39978 | 33134 ft | 506 kts | 109° |
| 2026-04-25 11:03 | 64.78981 | -32.24118 | 33131 ft | 504 kts | 109° |
| 2026-04-25 11:03 | 64.77068 | -32.08319 | 33130 ft | 507 kts | 110° |
| 2026-04-25 11:04 | 64.75133 | -31.92486 | 33134 ft | 505 kts | 109° |
| 2026-04-25 11:04 | 64.73197 | -31.76822 | 33134 ft | 505 kts | 109° |
| 2026-04-25 11:05 | 64.71247 | -31.61188 | 33136 ft | 505 kts | 109° |
| 2026-04-25 11:05 | 64.69264 | -31.45451 | 33138 ft | 504 kts | 109° |
| 2026-04-25 11:06 | 64.67261 | -31.29708 | 33136 ft | 504 kts | 110° |
| 2026-04-25 11:06 | 64.65265 | -31.14174 | 33137 ft | 504 kts | 110° |
| 2026-04-25 11:07 | 64.63245 | -30.98603 | 33139 ft | 503 kts | 110° |
| 2026-04-25 11:07 | 64.61227 | -30.83197 | 33138 ft | 502 kts | 110° |
| 2026-04-25 11:08 | 64.59164 | -30.67597 | 33137 ft | 502 kts | 110° |
| 2026-04-25 11:08 | 64.57099 | -30.52123 | 33135 ft | 502 kts | 110° |
| 2026-04-25 11:09 | 64.55029 | -30.36754 | 33134 ft | 501 kts | 110° |
| 2026-04-25 11:09 | 64.52930 | -30.21317 | 33132 ft | 500 kts | 111° |
| 2026-04-25 11:10 | 64.50822 | -30.05986 | 33127 ft | 499 kts | 112° |
| 2026-04-25 11:10 | 64.48176 | -29.91354 | 33130 ft | 498 kts | 117° |
| 2026-04-25 11:11 | 64.45351 | -29.76792 | 33133 ft | 496 kts | 117° |
| 2026-04-25 11:11 | 64.42503 | -29.62357 | 33140 ft | 496 kts | 117° |
| 2026-04-25 11:12 | 64.39628 | -29.47946 | 33141 ft | 496 kts | 118° |
| 2026-04-25 11:12 | 64.36719 | -29.33505 | 33143 ft | 494 kts | 118° |
| 2026-04-25 11:13 | 64.33813 | -29.19200 | 33143 ft | 494 kts | 118° |
| 2026-04-25 11:13 | 64.30904 | -29.04991 | 33144 ft | 494 kts | 118° |
| 2026-04-25 11:14 | 64.27973 | -28.90780 | 33145 ft | 494 kts | 118° |
| 2026-04-25 11:14 | 64.25022 | -28.76569 | 33147 ft | 493 kts | 118° |
| 2026-04-25 11:15 | 64.22061 | -28.62409 | 33145 ft | 493 kts | 118° |
| 2026-04-25 11:15 | 64.19097 | -28.48329 | 33149 ft | 492 kts | 118° |
| 2026-04-25 11:16 | 64.14608 | -28.27187 | 33146 ft | 491 kts | 119° |
| 2026-04-25 11:16 | 64.11633 | -28.13290 | 33143 ft | 492 kts | 119° |
| 2026-04-25 11:17 | 64.08593 | -27.99187 | 33148 ft | 491 kts | 119° |
| 2026-04-25 11:17 | 64.05559 | -27.85201 | 33152 ft | 492 kts | 119° |
| 2026-04-25 11:18 | 64.02527 | -27.71318 | 33149 ft | 491 kts | 119° |
| 2026-04-25 11:18 | 63.99464 | -27.57386 | 33149 ft | 491 kts | 119° |
| 2026-04-25 11:19 | 63.96416 | -27.43607 | 33150 ft | 490 kts | 119° |
| 2026-04-25 11:19 | 63.93350 | -27.29840 | 33148 ft | 489 kts | 120° |
| 2026-04-25 11:20 | 63.90273 | -27.16112 | 33149 ft | 489 kts | 120° |
| 2026-04-25 11:20 | 63.87194 | -27.02462 | 33155 ft | 489 kts | 120° |
| 2026-04-25 11:21 | 63.84091 | -26.88792 | 33164 ft | 489 kts | 120° |
| 2026-04-25 11:21 | 63.80975 | -26.75153 | 33173 ft | 489 kts | 120° |
| 2026-04-25 11:22 | 63.78359 | -26.63768 | 33172 ft | 488 kts | 120° |
| 2026-04-25 11:22 | 63.74707 | -26.47977 | 33171 ft | 487 kts | 120° |
| 2026-04-25 11:23 | 63.71549 | -26.34410 | 33174 ft | 488 kts | 120° |
| 2026-04-25 11:23 | 63.68411 | -26.21017 | 33172 ft | 486 kts | 121° |
| 2026-04-25 11:24 | 63.65256 | -26.07632 | 33174 ft | 486 kts | 120° |
| 2026-04-25 11:24 | 63.62062 | -25.94162 | 33173 ft | 486 kts | 121° |
| 2026-04-25 11:25 | 63.58875 | -25.80810 | 33174 ft | 485 kts | 121° |
| 2026-04-25 11:25 | 63.55667 | -25.67449 | 33174 ft | 485 kts | 120° |
| 2026-04-25 11:26 | 63.52461 | -25.54177 | 33174 ft | 486 kts | 120° |
| 2026-04-25 11:26 | 63.49251 | -25.40971 | 33174 ft | 485 kts | 120° |
| 2026-04-25 11:27 | 63.46028 | -25.27790 | 33172 ft | 486 kts | 121° |
| 2026-04-25 11:27 | 63.43330 | -25.16814 | 33172 ft | 485 kts | 121° |
| 2026-04-25 11:28 | 63.39512 | -25.01380 | 33172 ft | 485 kts | 121° |
| 2026-04-25 11:28 | 63.36266 | -24.88341 | 33174 ft | 485 kts | 121° |
| 2026-04-25 11:29 | 63.32981 | -24.75222 | 33174 ft | 485 kts | 121° |
| 2026-04-25 11:29 | 63.29694 | -24.62176 | 33175 ft | 485 kts | 121° |
| 2026-04-25 11:30 | 63.26398 | -24.49171 | 33174 ft | 484 kts | 121° |
| 2026-04-25 11:30 | 63.23093 | -24.36206 | 33176 ft | 484 kts | 121° |
| 2026-04-25 11:31 | 63.19792 | -24.23329 | 33180 ft | 483 kts | 122° |
| 2026-04-25 11:31 | 63.16478 | -24.10478 | 33189 ft | 484 kts | 122° |
| 2026-04-25 11:32 | 63.13139 | -23.97604 | 33191 ft | 483 kts | 122° |
| 2026-04-25 11:32 | 63.09783 | -23.84740 | 33192 ft | 483 kts | 122° |
| 2026-04-25 11:33 | 63.06438 | -23.71995 | 33190 ft | 482 kts | 122° |
| 2026-04-25 11:33 | 63.03077 | -23.59259 | 33191 ft | 482 kts | 122° |
| 2026-04-25 11:34 | 62.99695 | -23.46514 | 33192 ft | 482 kts | 122° |
| 2026-04-25 11:34 | 62.96313 | -23.33844 | 33187 ft | 482 kts | 122° |
| 2026-04-25 11:35 | 62.92912 | -23.21177 | 33190 ft | 482 kts | 122° |
| 2026-04-25 11:35 | 62.89518 | -23.08601 | 33194 ft | 481 kts | 122° |
| 2026-04-25 11:36 | 62.86087 | -22.95964 | 33194 ft | 481 kts | 122° |
| 2026-04-25 11:36 | 62.82684 | -22.83497 | 33196 ft | 481 kts | 122° |
| 2026-04-25 11:37 | 62.79243 | -22.70962 | 33199 ft | 480 kts | 123° |
| 2026-04-25 11:37 | 62.75815 | -22.58544 | 33195 ft | 479 kts | 123° |
| 2026-04-25 11:38 | 62.72383 | -22.46181 | 33203 ft | 481 kts | 123° |
| 2026-04-25 11:38 | 62.68924 | -22.33789 | 33205 ft | 479 kts | 123° |
| 2026-04-25 11:39 | 62.65460 | -22.21445 | 33204 ft | 479 kts | 123° |
| 2026-04-25 11:39 | 62.62001 | -22.09185 | 33204 ft | 478 kts | 123° |
| 2026-04-25 11:40 | 62.58527 | -21.96941 | 33205 ft | 479 kts | 123° |
| 2026-04-25 11:40 | 62.54999 | -21.84573 | 33202 ft | 478 kts | 124° |
| 2026-04-25 11:41 | 62.51517 | -21.72435 | 33204 ft | 477 kts | 123° |
| 2026-04-25 11:41 | 62.48035 | -21.60357 | 33206 ft | 476 kts | 123° |
| 2026-04-25 11:42 | 62.44532 | -21.48271 | 33208 ft | 475 kts | 123° |
| 2026-04-25 11:42 | 62.41042 | -21.36296 | 33208 ft | 475 kts | 123° |
| 2026-04-25 11:43 | 62.37546 | -21.24365 | 33204 ft | 474 kts | 124° |
| 2026-04-25 11:43 | 62.34018 | -21.12384 | 33206 ft | 474 kts | 124° |
| 2026-04-25 11:44 | 62.30503 | -21.00513 | 33203 ft | 473 kts | 124° |
| 2026-04-25 11:44 | 62.26984 | -20.88690 | 33208 ft | 473 kts | 124° |
| 2026-04-25 11:45 | 62.23443 | -20.76851 | 33208 ft | 474 kts | 124° |
| 2026-04-25 11:45 | 62.19896 | -20.65055 | 33205 ft | 473 kts | 124° |